Time,TemperatureF,DewpointF,PressureIn,WindDirection,WindDirectionDegrees,WindSpeedMPH,WindSpeedGustMPH,Humidity,HourlyPrecipIn,Conditions,Clouds,dailyrainin,SoftwareType,DateUTC
2013-02-27 00:01:00,27.5,16.2,30.09,SSW,203,0.0,0.4,62,0.00,,,0.00,WUHU216HW,2013-02-27 07:01:00,
2013-02-27 00:03:00,27.5,16.2,30.09,SSW,203,0.0,0.4,62,0.00,,,0.00,WUHU216HW,2013-02-27 07:03:00,
2013-02-27 00:04:00,27.4,16.0,30.09,SSW,203,0.0,0.4,62,0.00,,,0.00,WUHU216HW,2013-02-27 07:04:00,
2013-02-27 00:06:00,27.4,16.0,30.09,SSW,203,0.0,0.4,62,0.00,,,0.00,WUHU216HW,2013-02-27 07:06:00,
2013-02-27 00:08:00,27.4,16.0,30.09,SSE,158,0.0,0.4,62,0.00,,,0.00,WUHU216HW,2013-02-27 07:08:00,
2013-02-27 00:09:00,27.2,15.8,30.09,SSE,158,0.0,0.4,62,0.00,,,0.00,WUHU216HW,2013-02-27 07:09:00,
2013-02-27 00:11:00,27.2,15.8,30.09,SSE,158,0.0,0.0,62,0.00,,,0.00,WUHU216HW,2013-02-27 07:11:00,
2013-02-27 00:13:00,27.0,16.0,30.09,SSE,158,0.0,0.0,63,0.00,,,0.00,WUHU216HW,2013-02-27 07:13:00,
2013-02-27 00:14:00,27.0,16.0,30.09,SSE,158,0.0,0.0,63,0.00,,,0.00,WUHU216HW,2013-02-27 07:14:00,
2013-02-27 00:16:00,27.0,16.0,30.09,SSE,158,0.0,0.0,63,0.00,,,0.00,WUHU216HW,2013-02-27 07:16:00,
2013-02-27 00:18:00,26.8,15.8,30.09,East,90,0.0,0.0,63,0.00,,,0.00,WUHU216HW,2013-02-27 07:18:00,
2013-02-27 00:19:00,26.8,15.8,30.09,East,90,0.2,0.2,63,0.00,,,0.00,WUHU216HW,2013-02-27 07:19:00,
2013-02-27 00:21:00,26.6,15.7,30.09,East,90,0.0,0.2,63,0.00,,,0.00,WUHU216HW,2013-02-27 07:21:00,
2013-02-27 00:23:00,26.5,15.5,30.09,East,90,0.0,0.2,63,0.00,,,0.00,WUHU216HW,2013-02-27 07:23:00,
2013-02-27 00:24:00,26.5,15.5,30.09,East,90,0.2,0.2,63,0.00,,,0.00,WUHU216HW,2013-02-27 07:24:00,
2013-02-27 00:26:00,26.5,15.8,30.09,ESE,113,0.0,0.2,64,0.00,,,0.00,WUHU216HW,2013-02-27 07:26:00,
2013-02-27 00:28:00,26.3,15.7,30.09,ESE,113,0.0,0.2,64,0.00,,,0.00,WUHU216HW,2013-02-27 07:28:00,
2013-02-27 00:29:00,26.3,15.7,30.09,ESE,113,0.0,0.2,64,0.00,,,0.00,WUHU216HW,2013-02-27 07:29:00,
2013-02-27 00:31:00,26.3,15.7,30.09,ESE,113,0.0,0.2,64,0.00,,,0.00,WUHU216HW,2013-02-27 07:31:00,
2013-02-27 00:33:00,26.1,15.5,30.09,ESE,113,0.0,0.2,64,0.00,,,0.00,WUHU216HW,2013-02-27 07:33:00,
2013-02-27 00:35:00,26.1,15.5,30.09,ESE,113,0.0,0.0,64,0.00,,,0.00,WUHU216HW,2013-02-27 07:35:00,
2013-02-27 00:36:00,26.1,15.5,30.09,ESE,113,0.0,0.0,64,0.00,,,0.00,WUHU216HW,2013-02-27 07:36:00,
2013-02-27 00:38:00,26.1,15.5,30.09,SE,135,0.0,0.0,64,0.00,,,0.00,WUHU216HW,2013-02-27 07:38:00,
2013-02-27 00:39:00,26.1,15.5,30.09,SE,135,0.0,0.0,64,0.00,,,0.00,WUHU216HW,2013-02-27 07:39:00,
2013-02-27 00:41:00,25.9,15.3,30.09,SE,135,0.0,0.0,64,0.00,,,0.00,WUHU216HW,2013-02-27 07:41:00,
2013-02-27 00:43:00,25.9,15.7,30.09,SE,135,0.4,0.4,65,0.00,,,0.00,WUHU216HW,2013-02-27 07:43:00,
2013-02-27 00:44:00,25.9,15.7,30.09,SE,135,0.4,0.4,65,0.00,,,0.00,WUHU216HW,2013-02-27 07:44:00,
2013-02-27 00:46:00,25.7,15.6,30.09,SE,135,0.4,0.4,65,0.00,,,0.00,WUHU216HW,2013-02-27 07:46:00,
2013-02-27 00:49:00,25.7,15.6,30.09,SE,135,0.0,0.4,65,0.00,,,0.00,WUHU216HW,2013-02-27 07:49:00,
2013-02-27 00:51:00,25.7,15.6,30.09,SSW,203,0.7,0.7,65,0.00,,,0.00,WUHU216HW,2013-02-27 07:51:00,
2013-02-27 00:52:00,25.7,15.6,30.09,SSW,203,0.4,0.7,65,0.00,,,0.00,WUHU216HW,2013-02-27 07:52:00,
2013-02-27 00:54:00,25.6,15.4,30.09,SSW,203,0.0,0.7,65,0.00,,,0.00,WUHU216HW,2013-02-27 07:54:00,
2013-02-27 00:56:00,25.6,15.4,30.09,SSW,203,0.0,0.7,65,0.00,,,0.00,WUHU216HW,2013-02-27 07:56:00,
2013-02-27 00:57:00,25.6,15.4,30.09,SSW,203,0.0,0.7,65,0.00,,,0.00,WUHU216HW,2013-02-27 07:57:00,
2013-02-27 00:59:00,25.6,15.4,30.09,SSW,203,0.0,0.7,65,0.00,,,0.00,WUHU216HW,2013-02-27 07:59:00,
2013-02-27 01:01:00,25.6,15.4,30.09,SSW,203,0.0,0.0,65,0.00,,,0.00,WUHU216HW,2013-02-27 08:01:00,
2013-02-27 01:02:00,25.6,15.4,30.09,SSW,203,0.0,0.0,65,0.00,,,0.00,WUHU216HW,2013-02-27 08:02:00,
2013-02-27 01:04:00,25.4,15.2,30.09,SSW,203,0.0,0.0,65,0.00,,,0.00,WUHU216HW,2013-02-27 08:04:00,
2013-02-27 01:05:00,25.4,15.2,30.09,SSW,203,0.0,0.0,65,0.00,,,0.00,WUHU216HW,2013-02-27 08:05:00,
2013-02-27 01:06:00,25.2,15.0,30.09,SSW,203,0.0,0.0,65,0.00,,,0.00,WUHU216HW,2013-02-27 08:06:00,
2013-02-27 01:07:00,25.2,15.4,30.09,SSW,203,0.0,0.0,66,0.00,,,0.00,WUHU216HW,2013-02-27 08:07:00,
2013-02-27 01:09:00,25.2,15.4,30.09,SSW,203,0.0,0.0,66,0.00,,,0.00,WUHU216HW,2013-02-27 08:09:00,
2013-02-27 01:10:00,25.2,15.4,30.09,SSW,203,0.0,0.0,66,0.00,,,0.00,WUHU216HW,2013-02-27 08:10:00,
2013-02-27 01:11:00,25.2,15.4,30.09,South,180,0.0,0.0,66,0.00,,,0.00,WUHU216HW,2013-02-27 08:11:00,
2013-02-27 01:12:00,25.2,15.4,30.09,SSE,158,0.0,0.0,66,0.00,,,0.00,WUHU216HW,2013-02-27 08:12:00,
2013-02-27 01:14:00,25.0,15.2,30.09,SSE,158,0.4,0.4,66,0.00,,,0.00,WUHU216HW,2013-02-27 08:14:00,
2013-02-27 01:15:00,25.0,15.2,30.09,SSE,158,0.4,0.4,66,0.00,,,0.00,WUHU216HW,2013-02-27 08:15:00,
2013-02-27 01:16:00,25.0,15.2,30.09,SSE,158,0.2,0.4,66,0.00,,,0.00,WUHU216HW,2013-02-27 08:16:00,
2013-02-27 01:17:00,25.0,15.2,30.09,SSE,158,0.2,0.4,66,0.00,,,0.00,WUHU216HW,2013-02-27 08:17:00,
2013-02-27 01:19:00,24.8,15.0,30.09,SSE,158,0.0,0.4,66,0.00,,,0.00,WUHU216HW,2013-02-27 08:19:00,
2013-02-27 01:20:00,24.8,15.0,30.09,SSE,158,0.0,0.4,66,0.00,,,0.00,WUHU216HW,2013-02-27 08:20:00,
2013-02-27 01:21:00,24.8,15.0,30.09,SSE,158,0.0,0.4,66,0.00,,,0.00,WUHU216HW,2013-02-27 08:21:00,
2013-02-27 01:22:00,24.8,15.0,30.09,SSE,158,0.0,0.4,66,0.00,,,0.00,WUHU216HW,2013-02-27 08:22:00,
2013-02-27 01:25:00,25.0,15.6,30.09,SSE,158,0.0,0.4,67,0.00,,,0.00,WUHU216HW,2013-02-27 08:25:00,
2013-02-27 01:27:00,25.0,15.6,30.09,SSW,203,0.2,0.4,67,0.00,,,0.00,WUHU216HW,2013-02-27 08:27:00,
2013-02-27 01:30:00,25.0,15.6,30.09,West,270,1.6,1.6,67,0.00,,,0.00,WUHU216HW,2013-02-27 08:30:00,
2013-02-27 01:32:00,25.0,15.6,30.09,West,270,0.4,1.6,67,0.00,,,0.00,WUHU216HW,2013-02-27 08:32:00,
2013-02-27 01:33:00,25.0,15.6,30.09,West,270,0.4,1.6,67,0.00,,,0.00,WUHU216HW,2013-02-27 08:33:00,
2013-02-27 01:35:00,25.0,15.8,30.09,West,270,0.0,1.6,68,0.00,,,0.00,WUHU216HW,2013-02-27 08:35:00,
2013-02-27 01:37:00,25.2,16.0,30.09,SW,225,0.0,1.6,68,0.00,,,0.00,WUHU216HW,2013-02-27 08:37:00,
2013-02-27 01:38:00,25.2,16.0,30.09,SW,225,0.0,1.6,68,0.00,,,0.00,WUHU216HW,2013-02-27 08:38:00,
2013-02-27 01:40:00,25.2,16.0,30.09,WSW,248,0.9,0.9,68,0.00,,,0.00,WUHU216HW,2013-02-27 08:40:00,
2013-02-27 01:42:00,25.2,16.0,30.09,SW,225,0.2,0.9,68,0.00,,,0.00,WUHU216HW,2013-02-27 08:42:00,
2013-02-27 01:43:00,25.2,16.0,30.09,SW,225,0.2,0.9,68,0.00,,,0.00,WUHU216HW,2013-02-27 08:43:00,
2013-02-27 01:45:00,25.4,16.2,30.10,SW,225,0.0,0.9,68,0.00,,,0.00,WUHU216HW,2013-02-27 08:45:00,
2013-02-27 01:47:00,25.4,16.6,30.10,SW,225,0.0,0.9,69,0.00,,,0.00,WUHU216HW,2013-02-27 08:47:00,
2013-02-27 01:48:00,25.4,16.6,30.10,SW,225,0.0,0.9,69,0.00,,,0.00,WUHU216HW,2013-02-27 08:48:00,
2013-02-27 01:50:00,25.6,16.7,30.10,WSW,248,0.0,0.4,69,0.00,,,0.00,WUHU216HW,2013-02-27 08:50:00,
2013-02-27 01:52:00,25.6,16.7,30.10,WSW,248,0.0,0.4,69,0.00,,,0.00,WUHU216HW,2013-02-27 08:52:00,
2013-02-27 01:53:00,25.6,16.7,30.10,WSW,248,0.0,0.4,69,0.00,,,0.00,WUHU216HW,2013-02-27 08:53:00,
2013-02-27 01:55:00,25.6,16.7,30.10,WSW,248,0.0,0.4,69,0.00,,,0.00,WUHU216HW,2013-02-27 08:55:00,
2013-02-27 01:58:00,25.6,16.7,30.10,WSW,248,0.0,0.2,69,0.00,,,0.00,WUHU216HW,2013-02-27 08:58:00,
2013-02-27 02:00:00,25.6,16.7,30.10,WSW,248,0.0,0.0,69,0.00,,,0.00,WUHU216HW,2013-02-27 09:00:00,
2013-02-27 02:03:00,25.6,16.7,30.10,WSW,248,0.0,0.0,69,0.00,,,0.00,WUHU216HW,2013-02-27 09:03:00,
2013-02-27 02:05:00,25.6,16.7,30.10,WSW,248,0.0,0.0,69,0.00,,,0.00,WUHU216HW,2013-02-27 09:05:00,
2013-02-27 02:08:00,25.6,16.7,30.10,South,180,0.4,0.4,69,0.00,,,0.00,WUHU216HW,2013-02-27 09:08:00,
2013-02-27 02:10:00,25.6,16.7,30.10,South,180,0.0,0.4,69,0.00,,,0.00,WUHU216HW,2013-02-27 09:10:00,
2013-02-27 02:11:00,25.6,16.7,30.10,South,180,0.0,0.4,69,0.00,,,0.00,WUHU216HW,2013-02-27 09:11:00,
2013-02-27 02:13:00,25.6,16.7,30.10,South,180,0.0,0.4,69,0.00,,,0.00,WUHU216HW,2013-02-27 09:13:00,
2013-02-27 02:15:00,25.6,16.7,30.10,South,180,0.0,0.4,69,0.00,,,0.00,WUHU216HW,2013-02-27 09:15:00,
2013-02-27 02:16:00,25.6,16.7,30.10,South,180,0.0,0.4,69,0.00,,,0.00,WUHU216HW,2013-02-27 09:16:00,
2013-02-27 02:18:00,25.6,16.7,30.10,South,180,0.0,0.4,69,0.00,,,0.00,WUHU216HW,2013-02-27 09:18:00,
2013-02-27 02:21:00,25.6,16.7,30.10,South,180,0.0,0.4,69,0.00,,,0.00,WUHU216HW,2013-02-27 09:21:00,
2013-02-27 02:23:00,25.6,16.7,30.10,SSW,203,0.4,0.4,69,0.00,,,0.00,WUHU216HW,2013-02-27 09:23:00,
2013-02-27 02:24:00,25.6,16.7,30.10,SSW,203,0.4,0.4,69,0.00,,,0.00,WUHU216HW,2013-02-27 09:24:00,
2013-02-27 02:26:00,25.7,16.9,30.10,SSW,203,1.6,1.6,69,0.00,,,0.00,WUHU216HW,2013-02-27 09:26:00,
2013-02-27 02:28:00,25.7,17.3,30.10,WSW,248,1.1,1.8,70,0.00,,,0.00,WUHU216HW,2013-02-27 09:28:00,
2013-02-27 02:29:00,25.7,17.3,30.10,SW,225,0.4,1.8,70,0.00,,,0.00,WUHU216HW,2013-02-27 09:29:00,
2013-02-27 02:31:00,25.7,17.3,30.10,West,270,1.1,1.8,70,0.00,,,0.00,WUHU216HW,2013-02-27 09:31:00,
2013-02-27 02:33:00,25.7,17.3,30.10,WSW,248,0.7,1.8,70,0.00,,,0.00,WUHU216HW,2013-02-27 09:33:00,
2013-02-27 02:34:00,25.7,17.3,30.10,WSW,248,0.4,1.8,70,0.00,,,0.00,WUHU216HW,2013-02-27 09:34:00,
2013-02-27 02:36:00,25.9,17.5,30.10,WSW,248,1.1,1.8,70,0.00,,,0.00,WUHU216HW,2013-02-27 09:36:00,
2013-02-27 02:38:00,25.9,17.5,30.10,WSW,248,1.8,1.8,70,0.00,,,0.00,WUHU216HW,2013-02-27 09:38:00,
2013-02-27 02:39:00,26.1,17.6,30.10,WSW,248,0.9,1.8,70,0.00,,,0.00,WUHU216HW,2013-02-27 09:39:00,
2013-02-27 02:41:00,26.1,17.9,30.10,WSW,248,1.1,1.8,71,0.00,,,0.00,WUHU216HW,2013-02-27 09:41:00,
2013-02-27 02:43:00,26.3,18.1,30.10,WSW,248,0.0,1.8,71,0.00,,,0.00,WUHU216HW,2013-02-27 09:43:00,
2013-02-27 02:44:00,26.3,18.1,30.10,WSW,248,3.1,3.1,71,0.00,,,0.00,WUHU216HW,2013-02-27 09:44:00,
2013-02-27 02:46:00,26.5,18.3,30.10,West,270,2.2,4.0,71,0.00,,,0.00,WUHU216HW,2013-02-27 09:46:00,
2013-02-27 02:49:00,26.6,18.8,30.09,West,270,2.5,4.0,72,0.00,,,0.00,WUHU216HW,2013-02-27 09:49:00,
2013-02-27 02:50:00,26.6,18.8,30.10,WSW,248,1.1,4.0,72,0.00,,,0.00,WUHU216HW,2013-02-27 09:50:00,
2013-02-27 02:51:00,26.8,18.6,30.10,SW,225,0.4,4.0,71,0.00,,,0.00,WUHU216HW,2013-02-27 09:51:00,
2013-02-27 02:52:00,26.8,18.6,30.10,SW,225,0.4,4.0,71,0.00,,,0.00,WUHU216HW,2013-02-27 09:52:00,
2013-02-27 02:54:00,27.0,18.8,30.09,SSW,203,1.8,4.0,71,0.00,,,0.00,WUHU216HW,2013-02-27 09:54:00,
2013-02-27 02:55:00,27.0,18.8,30.09,WSW,248,1.3,4.0,71,0.00,,,0.00,WUHU216HW,2013-02-27 09:55:00,
2013-02-27 02:57:00,27.0,18.8,30.10,WSW,248,0.7,2.5,71,0.00,,,0.00,WUHU216HW,2013-02-27 09:57:00,
2013-02-27 02:59:00,27.2,19.0,30.10,SW,225,1.1,2.0,71,0.00,,,0.00,WUHU216HW,2013-02-27 09:59:00,
2013-02-27 03:00:00,27.2,19.0,30.09,WSW,248,1.3,2.0,71,0.00,,,0.00,WUHU216HW,2013-02-27 10:00:00,
2013-02-27 03:02:00,27.2,19.0,30.09,South,180,0.2,1.8,71,0.00,,,0.00,WUHU216HW,2013-02-27 10:02:00,
2013-02-27 03:04:00,27.2,18.7,30.09,WSW,248,0.2,1.3,70,0.00,,,0.00,WUHU216HW,2013-02-27 10:04:00,
2013-02-27 03:05:00,27.2,18.7,30.09,South,180,0.9,1.3,70,0.00,,,0.00,WUHU216HW,2013-02-27 10:05:00,
2013-02-27 03:07:00,27.4,18.9,30.09,SW,225,0.4,1.3,70,0.00,,,0.00,WUHU216HW,2013-02-27 10:07:00,
2013-02-27 03:08:00,27.2,18.7,30.09,SW,225,0.2,1.3,70,0.00,,,0.00,WUHU216HW,2013-02-27 10:08:00,
2013-02-27 03:09:00,27.2,18.7,30.09,SSW,203,0.0,1.3,70,0.00,,,0.00,WUHU216HW,2013-02-27 10:09:00,
2013-02-27 03:10:00,27.2,18.7,30.09,WSW,248,0.2,0.9,70,0.00,,,0.00,WUHU216HW,2013-02-27 10:10:00,
2013-02-27 03:12:00,27.2,18.7,30.09,SSE,158,0.2,0.9,70,0.00,,,0.00,WUHU216HW,2013-02-27 10:12:00,
2013-02-27 03:13:00,27.2,18.7,30.09,SSE,158,0.2,0.9,70,0.00,,,0.00,WUHU216HW,2013-02-27 10:13:00,
2013-02-27 03:14:00,27.2,18.7,30.09,South,180,0.4,0.9,70,0.00,,,0.00,WUHU216HW,2013-02-27 10:14:00,
2013-02-27 03:15:00,27.2,18.7,30.09,SW,225,0.4,0.4,70,0.00,,,0.00,WUHU216HW,2013-02-27 10:15:00,
2013-02-27 03:17:00,27.2,18.7,30.09,WSW,248,0.4,1.8,70,0.00,,,0.00,WUHU216HW,2013-02-27 10:17:00,
2013-02-27 03:18:00,27.2,18.7,30.09,WSW,248,0.0,1.8,70,0.00,,,0.00,WUHU216HW,2013-02-27 10:18:00,
2013-02-27 03:19:00,27.2,18.7,30.09,SW,225,0.9,1.8,70,0.00,,,0.00,WUHU216HW,2013-02-27 10:19:00,
2013-02-27 03:21:00,27.2,18.7,30.09,WNW,293,0.9,1.8,70,0.00,,,0.00,WUHU216HW,2013-02-27 10:21:00,
2013-02-27 03:22:00,27.2,18.7,30.09,South,180,0.0,1.8,70,0.00,,,0.00,WUHU216HW,2013-02-27 10:22:00,
2013-02-27 03:23:00,27.2,18.7,30.09,South,180,0.0,1.8,70,0.00,,,0.00,WUHU216HW,2013-02-27 10:23:00,
2013-02-27 03:24:00,27.2,18.7,30.09,SSE,158,0.0,1.8,70,0.00,,,0.00,WUHU216HW,2013-02-27 10:24:00,
2013-02-27 03:26:00,27.2,18.7,30.09,SSE,158,0.0,1.8,70,0.00,,,0.00,WUHU216HW,2013-02-27 10:26:00,
2013-02-27 03:27:00,27.2,18.7,30.09,SSW,203,0.0,0.9,70,0.00,,,0.00,WUHU216HW,2013-02-27 10:27:00,
2013-02-27 03:28:00,27.2,18.7,30.09,SW,225,0.9,1.1,70,0.00,,,0.00,WUHU216HW,2013-02-27 10:28:00,
2013-02-27 03:29:00,27.2,18.7,30.09,SSW,203,1.1,1.1,70,0.00,,,0.00,WUHU216HW,2013-02-27 10:29:00,
2013-02-27 03:31:00,27.2,18.7,30.09,WSW,248,0.7,1.1,70,0.00,,,0.00,WUHU216HW,2013-02-27 10:31:00,
2013-02-27 03:32:00,27.2,18.7,30.09,SW,225,0.0,1.1,70,0.00,,,0.00,WUHU216HW,2013-02-27 10:32:00,
2013-02-27 03:34:00,27.2,18.7,30.09,WSW,248,0.0,1.1,70,0.00,,,0.00,WUHU216HW,2013-02-27 10:34:00,
2013-02-27 03:35:00,27.2,19.0,30.09,NNW,338,0.0,1.1,71,0.00,,,0.00,WUHU216HW,2013-02-27 10:35:00,
2013-02-27 03:36:00,27.2,19.0,30.09,WNW,293,0.7,1.1,71,0.00,,,0.00,WUHU216HW,2013-02-27 10:36:00,
2013-02-27 03:38:00,27.2,19.0,30.09,WSW,248,1.1,1.1,71,0.00,,,0.00,WUHU216HW,2013-02-27 10:38:00,
2013-02-27 03:39:00,27.2,18.7,30.09,WSW,248,1.1,1.1,70,0.00,,,0.00,WUHU216HW,2013-02-27 10:39:00,
2013-02-27 03:40:00,27.2,18.7,30.09,SW,225,0.4,1.1,70,0.00,,,0.00,WUHU216HW,2013-02-27 10:40:00,
2013-02-27 03:41:00,27.2,18.7,30.09,WSW,248,1.6,1.6,70,0.00,,,0.00,WUHU216HW,2013-02-27 10:41:00,
2013-02-27 03:43:00,27.2,18.7,30.09,West,270,0.9,1.6,70,0.00,,,0.00,WUHU216HW,2013-02-27 10:43:00,
2013-02-27 03:44:00,27.2,18.7,30.09,WSW,248,0.4,1.6,70,0.00,,,0.00,WUHU216HW,2013-02-27 10:44:00,
2013-02-27 03:45:00,27.2,18.7,30.09,WSW,248,1.1,1.6,70,0.00,,,0.00,WUHU216HW,2013-02-27 10:45:00,
2013-02-27 03:47:00,27.4,18.9,30.09,SSW,203,2.5,2.5,70,0.00,,,0.00,WUHU216HW,2013-02-27 10:47:00,
2013-02-27 03:48:00,27.2,18.7,30.09,South,180,1.8,2.5,70,0.00,,,0.00,WUHU216HW,2013-02-27 10:48:00,
2013-02-27 03:49:00,27.4,18.9,30.09,SW,225,3.4,3.4,70,0.00,,,0.00,WUHU216HW,2013-02-27 10:49:00,
2013-02-27 03:50:00,27.4,18.9,30.09,SW,225,1.8,3.6,70,0.00,,,0.00,WUHU216HW,2013-02-27 10:50:00,
2013-02-27 03:52:00,27.2,18.7,30.10,SSW,203,1.6,3.6,70,0.00,,,0.00,WUHU216HW,2013-02-27 10:52:00,
2013-02-27 03:53:00,27.4,18.9,30.09,SW,225,2.0,3.6,70,0.00,,,0.00,WUHU216HW,2013-02-27 10:53:00,
2013-02-27 03:54:00,27.4,18.9,30.10,SW,225,1.1,3.6,70,0.00,,,0.00,WUHU216HW,2013-02-27 10:54:00,
2013-02-27 03:55:00,27.2,18.7,30.09,SW,225,2.0,3.6,70,0.00,,,0.00,WUHU216HW,2013-02-27 10:55:00,
2013-02-27 03:57:00,27.2,18.7,30.10,SW,225,2.0,3.6,70,0.00,,,0.00,WUHU216HW,2013-02-27 10:57:00,
2013-02-27 03:58:00,27.2,18.7,30.10,SW,225,3.4,3.6,70,0.00,,,0.00,WUHU216HW,2013-02-27 10:58:00,
2013-02-27 03:59:00,27.2,18.7,30.10,SW,225,3.4,3.6,70,0.00,,,0.00,WUHU216HW,2013-02-27 10:59:00,
2013-02-27 04:01:00,27.2,18.7,30.09,West,270,2.5,3.4,70,0.00,,,0.00,WUHU216HW,2013-02-27 11:01:00,
2013-02-27 04:02:00,27.2,18.7,30.09,SSW,203,3.1,3.4,70,0.00,,,0.00,WUHU216HW,2013-02-27 11:02:00,
2013-02-27 04:04:00,27.2,18.7,30.09,SW,225,1.6,3.4,70,0.00,,,0.00,WUHU216HW,2013-02-27 11:04:00,
2013-02-27 04:06:00,27.0,18.2,30.09,SW,225,2.2,3.4,69,0.00,,,0.00,WUHU216HW,2013-02-27 11:06:00,
2013-02-27 04:08:00,27.0,18.5,30.10,West,270,3.1,3.4,70,0.00,,,0.00,WUHU216HW,2013-02-27 11:08:00,
2013-02-27 04:09:00,27.0,18.5,30.09,WSW,248,3.1,3.4,70,0.00,,,0.00,WUHU216HW,2013-02-27 11:09:00,
2013-02-27 04:11:00,27.0,18.5,30.09,West,270,3.6,3.6,70,0.00,,,0.00,WUHU216HW,2013-02-27 11:11:00,
2013-02-27 04:13:00,27.0,18.5,30.09,WSW,248,2.5,4.3,70,0.00,,,0.00,WUHU216HW,2013-02-27 11:13:00,
2013-02-27 04:14:00,27.0,18.5,30.09,WSW,248,1.1,4.3,70,0.00,,,0.00,WUHU216HW,2013-02-27 11:14:00,
2013-02-27 04:16:00,27.0,18.2,30.09,SW,225,0.9,4.3,69,0.00,,,0.00,WUHU216HW,2013-02-27 11:16:00,
2013-02-27 04:18:00,27.0,18.2,30.09,SSW,203,1.1,4.3,69,0.00,,,0.00,WUHU216HW,2013-02-27 11:18:00,
2013-02-27 04:19:00,27.0,18.2,30.09,SSW,203,1.1,4.3,69,0.00,,,0.00,WUHU216HW,2013-02-27 11:19:00,
2013-02-27 04:21:00,26.8,18.0,30.09,SW,225,1.8,2.5,69,0.00,,,0.00,WUHU216HW,2013-02-27 11:21:00,
2013-02-27 04:23:00,26.8,18.0,30.09,SSW,203,4.5,4.5,69,0.00,,,0.00,WUHU216HW,2013-02-27 11:23:00,
2013-02-27 04:24:00,26.8,18.0,30.09,SSW,203,4.5,4.5,69,0.00,,,0.00,WUHU216HW,2013-02-27 11:24:00,
2013-02-27 04:25:00,26.6,17.8,30.09,SSW,203,1.6,4.5,69,0.00,,,0.00,WUHU216HW,2013-02-27 11:25:00,
2013-02-27 04:26:00,26.6,17.8,30.10,West,270,0.4,4.5,69,0.00,,,0.00,WUHU216HW,2013-02-27 11:26:00,
2013-02-27 04:28:00,26.6,17.8,30.10,WSW,248,0.7,4.5,69,0.00,,,0.00,WUHU216HW,2013-02-27 11:28:00,
2013-02-27 04:29:00,26.6,17.8,30.10,WSW,248,0.7,4.5,69,0.00,,,0.00,WUHU216HW,2013-02-27 11:29:00,
2013-02-27 04:30:00,26.5,17.6,30.10,SW,225,1.6,4.5,69,0.00,,,0.00,WUHU216HW,2013-02-27 11:30:00,
2013-02-27 04:31:00,26.5,17.6,30.10,South,180,1.1,4.5,69,0.00,,,0.00,WUHU216HW,2013-02-27 11:31:00,
2013-02-27 04:33:00,26.3,17.5,30.10,WSW,248,2.9,2.9,69,0.00,,,0.00,WUHU216HW,2013-02-27 11:33:00,
2013-02-27 04:34:00,26.3,17.5,30.10,WSW,248,2.9,2.9,69,0.00,,,0.00,WUHU216HW,2013-02-27 11:34:00,
2013-02-27 04:35:00,26.3,17.5,30.10,SSW,203,3.1,3.1,69,0.00,,,0.00,WUHU216HW,2013-02-27 11:35:00,
2013-02-27 04:37:00,26.3,17.5,30.10,SW,225,1.3,3.1,69,0.00,,,0.00,WUHU216HW,2013-02-27 11:37:00,
2013-02-27 04:38:00,26.3,17.5,30.10,SW,225,1.8,3.1,69,0.00,,,0.00,WUHU216HW,2013-02-27 11:38:00,
2013-02-27 04:39:00,26.3,17.5,30.10,SW,225,1.8,3.1,69,0.00,,,0.00,WUHU216HW,2013-02-27 11:39:00,
2013-02-27 04:40:00,26.1,17.3,30.10,SSW,203,0.9,3.1,69,0.00,,,0.00,WUHU216HW,2013-02-27 11:40:00,
2013-02-27 04:42:00,26.1,17.3,30.10,SSW,203,0.9,3.1,69,0.00,,,0.00,WUHU216HW,2013-02-27 11:42:00,
2013-02-27 04:43:00,25.9,17.1,30.10,SW,225,1.8,3.1,69,0.00,,,0.00,WUHU216HW,2013-02-27 11:43:00,
2013-02-27 04:44:00,25.9,17.1,30.10,SW,225,1.8,3.1,69,0.00,,,0.00,WUHU216HW,2013-02-27 11:44:00,
2013-02-27 04:45:00,25.9,17.1,30.10,SSW,203,1.1,1.8,69,0.00,,,0.00,WUHU216HW,2013-02-27 11:45:00,
2013-02-27 04:47:00,25.9,17.1,30.10,SW,225,1.8,1.8,69,0.00,,,0.00,WUHU216HW,2013-02-27 11:47:00,
2013-02-27 04:48:00,25.7,16.9,30.10,SW,225,1.6,2.0,69,0.00,,,0.00,WUHU216HW,2013-02-27 11:48:00,
2013-02-27 04:49:00,25.7,16.9,30.10,SW,225,1.6,2.0,69,0.00,,,0.00,WUHU216HW,2013-02-27 11:49:00,
2013-02-27 04:51:00,25.6,16.7,30.10,SW,225,1.3,2.0,69,0.00,,,0.00,WUHU216HW,2013-02-27 11:51:00,
2013-02-27 04:52:00,25.6,16.7,30.10,SW,225,1.1,2.0,69,0.00,,,0.00,WUHU216HW,2013-02-27 11:52:00,
2013-02-27 04:53:00,25.6,16.7,30.10,SW,225,1.8,2.0,69,0.00,,,0.00,WUHU216HW,2013-02-27 11:53:00,
2013-02-27 04:54:00,25.6,16.7,30.10,SSW,203,2.2,2.2,69,0.00,,,0.00,WUHU216HW,2013-02-27 11:54:00,
2013-02-27 04:56:00,25.6,16.7,30.10,WSW,248,2.5,2.5,69,0.00,,,0.00,WUHU216HW,2013-02-27 11:56:00,
2013-02-27 04:57:00,25.6,16.7,30.10,WSW,248,2.5,2.5,69,0.00,,,0.00,WUHU216HW,2013-02-27 11:57:00,
2013-02-27 04:58:00,25.4,16.6,30.10,SSW,203,2.0,2.5,69,0.00,,,0.00,WUHU216HW,2013-02-27 11:58:00,
2013-02-27 04:59:00,25.4,16.6,30.10,SSW,203,2.5,2.5,69,0.00,,,0.00,WUHU216HW,2013-02-27 11:59:00,
2013-02-27 05:01:00,25.4,16.6,30.10,South,180,1.8,2.7,69,0.00,,,0.00,WUHU216HW,2013-02-27 12:01:00,
2013-02-27 05:02:00,25.2,16.4,30.10,SW,225,1.8,2.7,69,0.00,,,0.00,WUHU216HW,2013-02-27 12:02:00,
2013-02-27 05:04:00,25.2,16.4,30.10,SW,225,2.5,2.7,69,0.00,,,0.00,WUHU216HW,2013-02-27 12:04:00,
2013-02-27 05:06:00,25.2,16.4,30.11,SSW,203,0.4,2.7,69,0.00,,,0.00,WUHU216HW,2013-02-27 12:06:00,
2013-02-27 05:08:00,25.0,16.2,30.10,SSW,203,1.8,2.7,69,0.00,,,0.00,WUHU216HW,2013-02-27 12:08:00,
2013-02-27 05:09:00,25.2,16.4,30.11,SW,225,1.6,2.7,69,0.00,,,0.00,WUHU216HW,2013-02-27 12:09:00,
2013-02-27 05:12:00,25.0,16.2,30.11,SSW,203,0.7,2.5,69,0.00,,,0.00,WUHU216HW,2013-02-27 12:12:00,
2013-02-27 05:13:00,25.0,16.2,30.10,SSW,203,0.7,2.5,69,0.00,,,0.00,WUHU216HW,2013-02-27 12:13:00,
2013-02-27 05:14:00,24.8,16.0,30.11,SSW,203,1.8,1.8,69,0.00,,,0.00,WUHU216HW,2013-02-27 12:14:00,
2013-02-27 05:15:00,25.0,16.2,30.10,SSW,203,1.8,1.8,69,0.00,,,0.00,WUHU216HW,2013-02-27 12:15:00,
2013-02-27 05:17:00,24.8,16.0,30.11,SSW,203,2.2,2.2,69,0.00,,,0.00,WUHU216HW,2013-02-27 12:17:00,
2013-02-27 05:18:00,24.8,16.0,30.11,SW,225,1.8,2.2,69,0.00,,,0.00,WUHU216HW,2013-02-27 12:18:00,
2013-02-27 05:19:00,24.8,16.0,30.11,SW,225,1.1,2.2,69,0.00,,,0.00,WUHU216HW,2013-02-27 12:19:00,
2013-02-27 05:20:00,24.8,15.7,30.11,SW,225,1.8,2.2,68,0.00,,,0.00,WUHU216HW,2013-02-27 12:20:00,
2013-02-27 05:22:00,24.8,15.7,30.11,SW,225,2.0,2.2,68,0.00,,,0.00,WUHU216HW,2013-02-27 12:22:00,
2013-02-27 05:23:00,24.8,15.7,30.11,South,180,1.8,2.2,68,0.00,,,0.00,WUHU216HW,2013-02-27 12:23:00,
2013-02-27 05:24:00,24.8,15.7,30.11,South,180,1.8,2.2,68,0.00,,,0.00,WUHU216HW,2013-02-27 12:24:00,
2013-02-27 05:25:00,24.8,15.7,30.11,SW,225,1.1,2.5,68,0.00,,,0.00,WUHU216HW,2013-02-27 12:25:00,
2013-02-27 05:27:00,24.7,15.6,30.11,SSW,203,1.8,2.5,68,0.00,,,0.00,WUHU216HW,2013-02-27 12:27:00,
2013-02-27 05:28:00,24.7,15.6,30.11,SW,225,1.8,2.5,68,0.00,,,0.00,WUHU216HW,2013-02-27 12:28:00,
2013-02-27 05:29:00,24.7,15.6,30.11,SW,225,1.8,2.5,68,0.00,,,0.00,WUHU216HW,2013-02-27 12:29:00,
2013-02-27 05:30:00,24.7,15.6,30.11,SSW,203,1.1,2.5,68,0.00,,,0.00,WUHU216HW,2013-02-27 12:30:00,
2013-02-27 05:33:00,24.7,15.6,30.11,WSW,248,1.6,2.5,68,0.00,,,0.00,WUHU216HW,2013-02-27 12:33:00,
2013-02-27 05:34:00,24.5,15.4,30.11,SW,225,1.1,2.2,68,0.00,,,0.00,WUHU216HW,2013-02-27 12:34:00,
2013-02-27 05:35:00,24.5,15.4,30.11,WSW,248,3.4,3.4,68,0.00,,,0.00,WUHU216HW,2013-02-27 12:35:00,
2013-02-27 05:38:00,24.5,15.4,30.11,SW,225,1.3,3.4,68,0.00,,,0.00,WUHU216HW,2013-02-27 12:38:00,
2013-02-27 05:39:00,24.5,15.4,30.11,SW,225,1.3,3.4,68,0.00,,,0.00,WUHU216HW,2013-02-27 12:39:00,
2013-02-27 05:40:00,24.3,15.6,30.11,SW,225,1.3,3.4,69,0.00,,,0.00,WUHU216HW,2013-02-27 12:40:00,
2013-02-27 05:43:00,24.3,15.6,30.11,WSW,248,2.2,3.4,69,0.00,,,0.00,WUHU216HW,2013-02-27 12:43:00,
2013-02-27 05:44:00,24.3,15.6,30.11,WSW,248,2.5,3.4,69,0.00,,,0.00,WUHU216HW,2013-02-27 12:44:00,
2013-02-27 05:46:00,24.3,15.6,30.11,WNW,293,3.4,3.4,69,0.00,,,0.00,WUHU216HW,2013-02-27 12:46:00,
2013-02-27 05:48:00,24.3,15.6,30.11,WSW,248,1.3,3.4,69,0.00,,,0.00,WUHU216HW,2013-02-27 12:48:00,
2013-02-27 05:49:00,24.3,15.6,30.11,SW,225,0.9,3.4,69,0.00,,,0.00,WUHU216HW,2013-02-27 12:49:00,
2013-02-27 05:51:00,24.1,15.4,30.11,SSW,203,3.1,3.4,69,0.00,,,0.00,WUHU216HW,2013-02-27 12:51:00,
2013-02-27 05:53:00,24.1,15.4,30.11,SW,225,2.2,3.4,69,0.00,,,0.00,WUHU216HW,2013-02-27 12:53:00,
2013-02-27 05:54:00,24.1,15.4,30.11,WSW,248,1.1,3.4,69,0.00,,,0.00,WUHU216HW,2013-02-27 12:54:00,
2013-02-27 05:56:00,24.3,15.6,30.11,SW,225,1.1,3.1,69,0.00,,,0.00,WUHU216HW,2013-02-27 12:56:00,
2013-02-27 05:59:00,24.1,15.4,30.11,SSW,203,0.4,3.1,69,0.00,,,0.00,WUHU216HW,2013-02-27 12:59:00,
2013-02-27 06:00:00,24.1,15.4,30.11,SSW,203,3.4,3.4,69,0.00,,,0.00,WUHU216HW,2013-02-27 13:00:00,
2013-02-27 06:01:00,24.1,15.4,30.11,SSW,203,4.3,4.3,69,0.00,,,0.00,WUHU216HW,2013-02-27 13:01:00,
2013-02-27 06:04:00,24.1,15.4,30.11,SSW,203,1.8,4.3,69,0.00,,,0.00,WUHU216HW,2013-02-27 13:04:00,
2013-02-27 06:05:00,24.1,15.4,30.11,SW,225,2.9,4.3,69,0.00,,,0.00,WUHU216HW,2013-02-27 13:05:00,
2013-02-27 06:07:00,24.1,15.4,30.11,SW,225,2.5,4.3,69,0.00,,,0.00,WUHU216HW,2013-02-27 13:07:00,
2013-02-27 06:09:00,24.1,15.4,30.11,SW,225,2.7,4.3,69,0.00,,,0.00,WUHU216HW,2013-02-27 13:09:00,
2013-02-27 06:10:00,24.1,15.4,30.11,SSW,203,1.6,4.3,69,0.00,,,0.00,WUHU216HW,2013-02-27 13:10:00,
2013-02-27 06:12:00,24.1,15.4,30.11,SSW,203,1.3,2.9,69,0.00,,,0.00,WUHU216HW,2013-02-27 13:12:00,
2013-02-27 06:14:00,24.1,15.4,30.11,SSW,203,1.8,2.9,69,0.00,,,0.00,WUHU216HW,2013-02-27 13:14:00,
2013-02-27 06:15:00,24.1,15.4,30.11,WSW,248,3.1,3.1,69,0.00,,,0.00,WUHU216HW,2013-02-27 13:15:00,
2013-02-27 06:17:00,23.9,15.2,30.11,WSW,248,2.0,3.1,69,0.00,,,0.00,WUHU216HW,2013-02-27 13:17:00,
2013-02-27 06:19:00,24.1,15.4,30.11,SSW,203,2.5,3.1,69,0.00,,,0.00,WUHU216HW,2013-02-27 13:19:00,
2013-02-27 06:20:00,23.9,15.2,30.11,SW,225,2.0,3.1,69,0.00,,,0.00,WUHU216HW,2013-02-27 13:20:00,
2013-02-27 06:22:00,23.9,15.2,30.11,SW,225,1.8,3.6,69,0.00,,,0.00,WUHU216HW,2013-02-27 13:22:00,
2013-02-27 06:24:00,23.9,15.2,30.11,WSW,248,1.3,3.6,69,0.00,,,0.00,WUHU216HW,2013-02-27 13:24:00,
2013-02-27 06:25:00,23.9,15.2,30.11,SW,225,2.5,3.6,69,0.00,,,0.00,WUHU216HW,2013-02-27 13:25:00,
2013-02-27 06:27:00,23.9,15.2,30.11,SW,225,2.5,3.6,69,0.00,,,0.00,WUHU216HW,2013-02-27 13:27:00,
2013-02-27 06:30:00,23.8,15.0,30.11,WSW,248,2.2,3.6,69,0.00,,,0.00,WUHU216HW,2013-02-27 13:30:00,
2013-02-27 06:32:00,23.8,15.0,30.11,WSW,248,1.6,3.1,69,0.00,,,0.00,WUHU216HW,2013-02-27 13:32:00,
2013-02-27 06:35:00,23.6,14.9,30.11,SW,225,1.8,3.1,69,0.00,,,0.00,WUHU216HW,2013-02-27 13:35:00,
2013-02-27 06:36:00,23.6,14.9,30.11,SW,225,1.8,3.1,69,0.00,,,0.00,WUHU216HW,2013-02-27 13:36:00,
2013-02-27 06:37:00,23.6,14.9,30.11,WSW,248,1.8,3.1,69,0.00,,,0.00,WUHU216HW,2013-02-27 13:37:00,
2013-02-27 06:40:00,23.4,14.8,30.11,WSW,248,1.8,2.5,69,0.00,,,0.00,WUHU216HW,2013-02-27 13:40:00,
2013-02-27 06:41:00,23.4,14.8,30.11,WSW,248,1.8,2.5,69,0.00,,,0.00,WUHU216HW,2013-02-27 13:41:00,
2013-02-27 06:42:00,23.4,14.8,30.11,SW,225,2.9,2.9,69,0.00,,,0.00,WUHU216HW,2013-02-27 13:42:00,
2013-02-27 06:45:00,23.4,14.8,30.11,SW,225,1.1,2.9,69,0.00,,,0.00,WUHU216HW,2013-02-27 13:45:00,
2013-02-27 06:46:00,23.4,14.8,30.11,SW,225,1.1,2.9,69,0.00,,,0.00,WUHU216HW,2013-02-27 13:46:00,
2013-02-27 06:47:00,23.4,14.8,30.11,SW,225,0.9,2.9,69,0.00,,,0.00,WUHU216HW,2013-02-27 13:47:00,
2013-02-27 06:50:00,23.2,14.6,30.11,SW,225,0.7,2.9,69,0.00,,,0.00,WUHU216HW,2013-02-27 13:50:00,
2013-02-27 06:51:00,23.2,14.6,30.11,SW,225,0.7,2.9,69,0.00,,,0.00,WUHU216HW,2013-02-27 13:51:00,
2013-02-27 06:52:00,23.0,14.4,30.11,SW,225,0.7,2.7,69,0.00,,,0.00,WUHU216HW,2013-02-27 13:52:00,
2013-02-27 06:55:00,23.0,14.4,30.11,SSW,203,1.8,1.8,69,0.00,,,0.00,WUHU216HW,2013-02-27 13:55:00,
2013-02-27 06:56:00,23.0,14.4,30.11,SW,225,1.3,1.8,69,0.00,,,0.00,WUHU216HW,2013-02-27 13:56:00,
2013-02-27 06:57:00,22.9,14.2,30.11,SW,225,1.3,1.8,69,0.00,,,0.00,WUHU216HW,2013-02-27 13:57:00,
2013-02-27 06:58:00,22.9,14.2,30.11,SW,225,0.7,1.8,69,0.00,,,0.00,WUHU216HW,2013-02-27 13:58:00,
2013-02-27 07:01:00,22.9,14.2,30.11,West,270,1.8,1.8,69,0.00,,,0.00,WUHU216HW,2013-02-27 14:01:00,
2013-02-27 07:02:00,22.7,14.0,30.11,WSW,248,1.1,1.8,69,0.00,,,0.00,WUHU216HW,2013-02-27 14:02:00,
2013-02-27 07:03:00,22.7,14.0,30.11,West,270,0.9,1.8,69,0.00,,,0.00,WUHU216HW,2013-02-27 14:03:00,
2013-02-27 07:06:00,22.7,14.0,30.11,West,270,0.7,1.8,69,0.00,,,0.00,WUHU216HW,2013-02-27 14:06:00,
2013-02-27 07:07:00,22.7,14.0,30.11,West,270,1.1,1.8,69,0.00,,,0.00,WUHU216HW,2013-02-27 14:07:00,
2013-02-27 07:08:00,22.7,14.0,30.11,West,270,0.9,1.8,69,0.00,,,0.00,WUHU216HW,2013-02-27 14:08:00,
2013-02-27 07:11:00,22.7,14.0,30.11,West,270,0.4,1.3,69,0.00,,,0.00,WUHU216HW,2013-02-27 14:11:00,
2013-02-27 07:12:00,22.7,14.0,30.11,WSW,248,1.6,1.6,69,0.00,,,0.00,WUHU216HW,2013-02-27 14:12:00,
2013-02-27 07:13:00,22.7,14.0,30.11,WSW,248,0.7,1.6,69,0.00,,,0.00,WUHU216HW,2013-02-27 14:13:00,
2013-02-27 07:16:00,22.9,14.2,30.11,WSW,248,1.8,1.8,69,0.00,,,0.00,WUHU216HW,2013-02-27 14:16:00,
2013-02-27 07:17:00,22.9,14.6,30.11,West,270,1.3,1.8,70,0.00,,,0.00,WUHU216HW,2013-02-27 14:17:00,
2013-02-27 07:18:00,22.9,14.2,30.11,West,270,1.3,1.8,69,0.00,,,0.00,WUHU216HW,2013-02-27 14:18:00,
2013-02-27 07:21:00,22.9,14.6,30.11,West,270,2.5,2.5,70,0.00,,,0.00,WUHU216HW,2013-02-27 14:21:00,
2013-02-27 07:22:00,23.0,14.4,30.11,West,270,1.6,2.5,69,0.00,,,0.00,WUHU216HW,2013-02-27 14:22:00,
2013-02-27 07:24:00,23.0,14.4,30.11,West,270,1.8,2.5,69,0.00,,,0.00,WUHU216HW,2013-02-27 14:24:00,
2013-02-27 07:27:00,23.0,14.4,30.11,WSW,248,1.1,2.5,69,0.00,,,0.00,WUHU216HW,2013-02-27 14:27:00,
2013-02-27 07:29:00,23.0,14.4,30.11,West,270,1.8,2.5,69,0.00,,,0.00,WUHU216HW,2013-02-27 14:29:00,
2013-02-27 07:32:00,23.2,14.6,30.11,West,270,0.9,1.8,69,0.00,,,0.00,WUHU216HW,2013-02-27 14:32:00,
2013-02-27 07:33:00,23.0,14.4,30.11,West,270,0.4,1.8,69,0.00,,,0.00,WUHU216HW,2013-02-27 14:33:00,
2013-02-27 07:34:00,23.2,14.6,30.11,WSW,248,0.4,1.8,69,0.00,,,0.00,WUHU216HW,2013-02-27 14:34:00,
2013-02-27 07:37:00,23.2,14.6,30.11,SSW,203,0.9,1.8,69,0.00,,,0.00,WUHU216HW,2013-02-27 14:37:00,
2013-02-27 07:38:00,23.2,14.6,30.11,SSW,203,0.9,1.8,69,0.00,,,0.00,WUHU216HW,2013-02-27 14:38:00,
2013-02-27 07:39:00,23.2,14.6,30.11,SW,225,0.7,1.1,69,0.00,,,0.00,WUHU216HW,2013-02-27 14:39:00,
2013-02-27 07:42:00,23.2,14.6,30.11,SW,225,0.4,1.1,69,0.00,,,0.00,WUHU216HW,2013-02-27 14:42:00,
2013-02-27 07:43:00,23.2,14.6,30.11,SSW,203,0.9,1.1,69,0.00,,,0.00,WUHU216HW,2013-02-27 14:43:00,
2013-02-27 07:44:00,23.2,14.6,30.11,SW,225,1.1,1.1,69,0.00,,,0.00,WUHU216HW,2013-02-27 14:44:00,
2013-02-27 07:48:00,23.2,14.6,30.11,SSW,203,0.7,1.1,69,0.00,,,0.00,WUHU216HW,2013-02-27 14:48:00,
2013-02-27 07:49:00,23.2,14.6,30.11,SSW,203,0.4,1.1,69,0.00,,,0.00,WUHU216HW,2013-02-27 14:49:00,
2013-02-27 07:53:00,23.2,14.6,30.11,West,270,1.3,1.3,69,0.00,,,0.00,WUHU216HW,2013-02-27 14:53:00,
2013-02-27 07:54:00,23.2,14.6,30.11,WSW,248,0.2,1.3,69,0.00,,,0.00,WUHU216HW,2013-02-27 14:54:00,
2013-02-27 07:58:00,23.2,14.6,30.11,SSW,203,1.3,1.3,69,0.00,,,0.00,WUHU216HW,2013-02-27 14:58:00,
2013-02-27 07:59:00,23.4,14.8,30.11,West,270,1.1,1.3,69,0.00,,,0.00,WUHU216HW,2013-02-27 14:59:00,
2013-02-27 08:03:00,23.4,15.1,30.11,West,270,1.8,1.8,70,0.00,,,0.00,WUHU216HW,2013-02-27 15:03:00,
2013-02-27 08:04:00,23.6,15.2,30.11,SW,225,2.5,2.5,70,0.00,,,0.00,WUHU216HW,2013-02-27 15:04:00,
2013-02-27 08:08:00,23.9,15.6,30.11,West,270,2.5,4.3,70,0.00,,,0.00,WUHU216HW,2013-02-27 15:08:00,
2013-02-27 08:09:00,23.9,15.6,30.11,West,270,4.0,4.3,70,0.00,,,0.00,WUHU216HW,2013-02-27 15:09:00,
2013-02-27 08:13:00,24.3,15.9,30.11,WSW,248,2.5,4.3,70,0.00,,,0.00,WUHU216HW,2013-02-27 15:13:00,
2013-02-27 08:14:00,24.5,16.0,30.11,WSW,248,3.8,4.3,70,0.00,,,0.00,WUHU216HW,2013-02-27 15:14:00,
2013-02-27 08:18:00,24.7,15.8,30.11,WSW,248,1.1,4.0,69,0.00,,,0.00,WUHU216HW,2013-02-27 15:18:00,
2013-02-27 08:19:00,24.8,16.0,30.11,WSW,248,1.1,3.8,69,0.00,,,0.00,WUHU216HW,2013-02-27 15:19:00,
2013-02-27 08:20:00,24.8,16.0,30.11,West,270,2.7,3.8,69,0.00,,,0.00,WUHU216HW,2013-02-27 15:20:00,
2013-02-27 08:23:00,24.8,16.4,30.11,SW,225,0.7,3.8,70,0.00,,,0.00,WUHU216HW,2013-02-27 15:23:00,
2013-02-27 08:24:00,25.0,16.6,30.11,NW,315,1.8,2.7,70,0.00,,,0.00,WUHU216HW,2013-02-27 15:24:00,
2013-02-27 08:25:00,25.0,16.6,30.11,NW,315,1.8,2.7,70,0.00,,,0.00,WUHU216HW,2013-02-27 15:25:00,
2013-02-27 08:28:00,25.2,16.7,30.11,West,270,2.2,2.7,70,0.00,,,0.00,WUHU216HW,2013-02-27 15:28:00,
2013-02-27 08:29:00,25.4,16.9,30.11,WSW,248,0.4,2.7,70,0.00,,,0.00,WUHU216HW,2013-02-27 15:29:00,
2013-02-27 08:30:00,25.4,16.9,30.11,SSW,203,2.5,2.5,70,0.00,,,0.00,WUHU216HW,2013-02-27 15:30:00,
2013-02-27 08:33:00,25.6,17.1,30.11,SSW,203,1.8,2.5,70,0.00,,,0.00,WUHU216HW,2013-02-27 15:33:00,
2013-02-27 08:34:00,25.6,17.1,30.11,WSW,248,0.9,2.5,70,0.00,,,0.00,WUHU216HW,2013-02-27 15:34:00,
2013-02-27 08:35:00,25.7,17.3,30.11,SW,225,3.4,3.4,70,0.00,,,0.00,WUHU216HW,2013-02-27 15:35:00,
2013-02-27 08:39:00,25.9,17.1,30.11,WSW,248,1.8,3.4,69,0.00,,,0.00,WUHU216HW,2013-02-27 15:39:00,
2013-02-27 08:40:00,26.1,17.3,30.11,SW,225,1.3,3.4,69,0.00,,,0.00,WUHU216HW,2013-02-27 15:40:00,
2013-02-27 08:44:00,26.3,17.5,30.11,West,270,1.8,4.0,69,0.00,,,0.00,WUHU216HW,2013-02-27 15:44:00,
2013-02-27 08:45:00,26.3,17.5,30.11,West,270,1.8,4.0,69,0.00,,,0.00,WUHU216HW,2013-02-27 15:45:00,
2013-02-27 08:49:00,26.8,17.6,30.11,WSW,248,2.0,4.0,68,0.00,,,0.00,WUHU216HW,2013-02-27 15:49:00,
2013-02-27 08:50:00,26.8,17.6,30.11,WSW,248,2.0,4.0,68,0.00,,,0.00,WUHU216HW,2013-02-27 15:50:00,
2013-02-27 08:54:00,27.0,17.8,30.11,West,270,3.4,4.0,68,0.00,,,0.00,WUHU216HW,2013-02-27 15:54:00,
2013-02-27 08:55:00,27.2,17.6,30.11,West,270,2.7,4.0,67,0.00,,,0.00,WUHU216HW,2013-02-27 15:55:00,
2013-02-27 08:56:00,27.2,17.6,30.11,West,270,2.7,4.0,67,0.00,,,0.00,WUHU216HW,2013-02-27 15:56:00,
2013-02-27 08:59:00,27.4,17.8,30.11,SSW,203,0.4,3.4,67,0.00,,,0.00,WUHU216HW,2013-02-27 15:59:00,
2013-02-27 09:00:00,27.5,18.0,30.11,SW,225,2.5,3.4,67,0.00,,,0.00,WUHU216HW,2013-02-27 16:00:00,
2013-02-27 09:01:00,27.5,18.0,30.11,SSW,203,2.5,3.4,67,0.00,,,0.00,WUHU216HW,2013-02-27 16:01:00,
2013-02-27 09:05:00,27.7,17.8,30.11,WSW,248,1.8,3.8,66,0.00,,,0.00,WUHU216HW,2013-02-27 16:05:00,
2013-02-27 09:06:00,27.7,17.8,30.11,WNW,293,1.3,3.8,66,0.00,,,0.00,WUHU216HW,2013-02-27 16:06:00,
2013-02-27 09:10:00,28.1,18.2,30.11,WNW,293,1.1,3.8,66,0.00,,,0.00,WUHU216HW,2013-02-27 16:10:00,
2013-02-27 09:11:00,28.1,18.2,30.11,NNW,338,0.2,3.8,66,0.00,,,0.00,WUHU216HW,2013-02-27 16:11:00,
2013-02-27 09:15:00,28.3,18.4,30.11,NE,45,0.4,1.3,66,0.00,,,0.00,WUHU216HW,2013-02-27 16:15:00,
2013-02-27 09:16:00,28.3,18.4,30.11,NE,45,0.4,1.1,66,0.00,,,0.00,WUHU216HW,2013-02-27 16:16:00,
2013-02-27 09:17:00,28.4,18.5,30.11,NNW,338,3.1,3.1,66,0.00,,,0.00,WUHU216HW,2013-02-27 16:17:00,
2013-02-27 09:20:00,28.4,18.2,30.11,NW,315,2.7,3.1,65,0.00,,,0.00,WUHU216HW,2013-02-27 16:20:00,
2013-02-27 09:21:00,28.4,18.2,30.11,NW,315,2.7,3.1,65,0.00,,,0.00,WUHU216HW,2013-02-27 16:21:00,
2013-02-27 09:22:00,28.6,18.4,30.11,WNW,293,2.9,3.1,65,0.00,,,0.00,WUHU216HW,2013-02-27 16:22:00,
2013-02-27 09:26:00,29.0,18.6,30.11,North,0,0.7,3.1,65,0.00,,,0.00,WUHU216HW,2013-02-27 16:26:00,
2013-02-27 09:27:00,29.0,18.6,30.11,ENE,68,1.1,2.9,65,0.00,,,0.00,WUHU216HW,2013-02-27 16:27:00,
2013-02-27 09:31:00,29.2,18.8,30.11,West,270,0.7,2.9,65,0.00,,,0.00,WUHU216HW,2013-02-27 16:31:00,
2013-02-27 09:32:00,29.2,18.8,30.11,West,270,1.1,1.1,65,0.00,,,0.00,WUHU216HW,2013-02-27 16:32:00,
2013-02-27 09:36:00,29.5,19.2,30.11,North,0,4.5,4.5,65,0.00,,,0.00,WUHU216HW,2013-02-27 16:36:00,
2013-02-27 09:37:00,29.5,19.2,30.11,North,0,4.5,4.5,65,0.00,,,0.00,WUHU216HW,2013-02-27 16:37:00,
2013-02-27 09:38:00,29.7,19.4,30.11,NNW,338,2.0,4.5,65,0.00,,,0.00,WUHU216HW,2013-02-27 16:38:00,
2013-02-27 09:41:00,29.9,19.4,30.11,North,0,0.4,4.5,65,0.00,,,0.00,WUHU216HW,2013-02-27 16:41:00,
2013-02-27 09:42:00,29.9,19.1,30.11,SSW,203,2.5,4.5,64,0.00,,,0.00,WUHU216HW,2013-02-27 16:42:00,
2013-02-27 09:43:00,30.1,19.3,30.11,NW,315,3.8,4.5,64,0.00,,,0.00,WUHU216HW,2013-02-27 16:43:00,
2013-02-27 09:46:00,30.2,19.4,30.11,SW,225,1.1,3.8,64,0.00,,,0.00,WUHU216HW,2013-02-27 16:46:00,
2013-02-27 09:47:00,30.2,19.4,30.11,West,270,2.0,3.8,64,0.00,,,0.00,WUHU216HW,2013-02-27 16:47:00,
2013-02-27 09:48:00,30.2,19.4,30.11,NW,315,2.5,3.8,64,0.00,,,0.00,WUHU216HW,2013-02-27 16:48:00,
2013-02-27 09:51:00,30.4,19.6,30.11,West,270,2.0,3.8,64,0.00,,,0.00,WUHU216HW,2013-02-27 16:51:00,
2013-02-27 09:52:00,30.6,19.4,30.11,NW,315,0.4,3.8,63,0.00,,,0.00,WUHU216HW,2013-02-27 16:52:00,
2013-02-27 09:53:00,30.6,19.4,30.11,WNW,293,1.8,2.5,63,0.00,,,0.00,WUHU216HW,2013-02-27 16:53:00,
2013-02-27 09:56:00,30.8,19.6,30.11,NNW,338,2.5,2.5,63,0.00,,,0.00,WUHU216HW,2013-02-27 16:56:00,
2013-02-27 09:57:00,31.0,19.8,30.11,NW,315,3.6,3.6,63,0.00,,,0.00,WUHU216HW,2013-02-27 16:57:00,
2013-02-27 09:58:00,31.0,19.8,30.10,WSW,248,1.3,3.6,63,0.00,,,0.00,WUHU216HW,2013-02-27 16:58:00,
2013-02-27 10:02:00,31.3,20.2,30.11,WSW,248,4.9,6.0,63,0.00,,,0.00,WUHU216HW,2013-02-27 17:02:00,
2013-02-27 10:04:00,31.3,19.8,30.11,WSW,248,3.1,6.0,62,0.00,,,0.00,WUHU216HW,2013-02-27 17:04:00,
2013-02-27 10:07:00,31.7,20.2,30.11,WSW,248,2.5,6.0,62,0.00,,,0.00,WUHU216HW,2013-02-27 17:07:00,
2013-02-27 10:09:00,32.0,20.5,30.11,WNW,293,1.3,6.0,62,0.00,,,0.00,WUHU216HW,2013-02-27 17:09:00,
2013-02-27 10:12:00,32.2,20.7,30.10,West,270,2.7,3.1,62,0.00,,,0.00,WUHU216HW,2013-02-27 17:12:00,
2013-02-27 10:13:00,32.4,20.9,30.11,WNW,293,1.1,3.1,62,0.00,,,0.00,WUHU216HW,2013-02-27 17:13:00,
2013-02-27 10:14:00,32.4,20.9,30.11,West,270,1.1,2.7,62,0.00,,,0.00,WUHU216HW,2013-02-27 17:14:00,
2013-02-27 10:17:00,32.8,20.8,30.10,SW,225,1.6,4.0,61,0.00,,,0.00,WUHU216HW,2013-02-27 17:17:00,
2013-02-27 10:18:00,32.8,20.8,30.10,NNW,338,0.7,4.0,61,0.00,,,0.00,WUHU216HW,2013-02-27 17:18:00,
2013-02-27 10:19:00,32.9,21.0,30.10,WNW,293,0.4,4.0,61,0.00,,,0.00,WUHU216HW,2013-02-27 17:19:00,
2013-02-27 10:22:00,33.1,21.2,30.10,WNW,293,2.7,4.0,61,0.00,,,0.00,WUHU216HW,2013-02-27 17:22:00,
2013-02-27 10:23:00,33.3,21.3,30.10,WNW,293,1.1,4.0,61,0.00,,,0.00,WUHU216HW,2013-02-27 17:23:00,
2013-02-27 10:24:00,33.3,21.3,30.10,WNW,293,0.4,4.0,61,0.00,,,0.00,WUHU216HW,2013-02-27 17:24:00,
2013-02-27 10:28:00,33.7,21.2,30.10,WSW,248,4.5,4.5,60,0.00,,,0.00,WUHU216HW,2013-02-27 17:28:00,
2013-02-27 10:29:00,33.8,21.4,30.10,WSW,248,0.7,4.5,60,0.00,,,0.00,WUHU216HW,2013-02-27 17:29:00,
2013-02-27 10:33:00,34.0,21.6,30.10,WSW,248,2.0,4.5,60,0.00,,,0.00,WUHU216HW,2013-02-27 17:33:00,
2013-02-27 10:34:00,34.2,21.8,30.10,SSW,203,2.5,4.5,60,0.00,,,0.00,WUHU216HW,2013-02-27 17:34:00,
2013-02-27 10:38:00,34.7,21.9,30.10,NNW,338,0.4,3.4,59,0.00,,,0.00,WUHU216HW,2013-02-27 17:38:00,
2013-02-27 10:39:00,34.7,21.9,30.10,WNW,293,1.3,3.4,59,0.00,,,0.00,WUHU216HW,2013-02-27 17:39:00,
2013-02-27 10:43:00,34.9,22.1,30.10,West,270,5.8,5.8,59,0.00,,,0.00,WUHU216HW,2013-02-27 17:43:00,
2013-02-27 10:44:00,34.9,22.1,30.10,West,270,5.8,5.8,59,0.00,,,0.00,WUHU216HW,2013-02-27 17:44:00,
2013-02-27 10:45:00,35.1,22.2,30.10,NNW,338,1.3,5.8,59,0.00,,,0.00,WUHU216HW,2013-02-27 17:45:00,
2013-02-27 10:48:00,35.3,22.0,30.10,WSW,248,2.2,5.8,58,0.00,,,0.00,WUHU216HW,2013-02-27 17:48:00,
2013-02-27 10:49:00,35.3,22.0,30.10,WSW,248,4.0,5.8,58,0.00,,,0.00,WUHU216HW,2013-02-27 17:49:00,
2013-02-27 10:50:00,35.5,22.1,30.10,WSW,248,2.7,5.8,58,0.00,,,0.00,WUHU216HW,2013-02-27 17:50:00,
2013-02-27 10:53:00,35.8,22.5,30.10,WSW,248,2.5,4.0,58,0.00,,,0.00,WUHU216HW,2013-02-27 17:53:00,
2013-02-27 10:54:00,36.0,22.7,30.10,West,270,2.5,4.0,58,0.00,,,0.00,WUHU216HW,2013-02-27 17:54:00,
2013-02-27 10:55:00,36.0,22.7,30.10,WNW,293,1.3,4.0,58,0.00,,,0.00,WUHU216HW,2013-02-27 17:55:00,
2013-02-27 10:58:00,36.4,22.6,30.09,SW,225,1.1,4.0,57,0.00,,,0.00,WUHU216HW,2013-02-27 17:58:00,
2013-02-27 10:59:00,36.4,22.6,30.09,WSW,248,1.1,3.6,57,0.00,,,0.00,WUHU216HW,2013-02-27 17:59:00,
2013-02-27 11:00:00,36.5,22.8,30.10,WNW,293,1.1,3.6,57,0.00,,,0.00,WUHU216HW,2013-02-27 18:00:00,
2013-02-27 11:03:00,36.9,23.0,30.09,SW,225,3.8,3.8,57,0.00,,,0.00,WUHU216HW,2013-02-27 18:03:00,
2013-02-27 11:04:00,37.1,23.2,30.09,South,180,3.1,3.8,57,0.00,,,0.00,WUHU216HW,2013-02-27 18:04:00,
2013-02-27 11:05:00,37.1,23.2,30.09,SSW,203,3.6,3.8,57,0.00,,,0.00,WUHU216HW,2013-02-27 18:05:00,
2013-02-27 11:08:00,37.4,23.1,30.09,WSW,248,1.8,4.7,56,0.00,,,0.00,WUHU216HW,2013-02-27 18:08:00,
2013-02-27 11:09:00,37.6,23.3,30.09,WSW,248,2.2,4.7,56,0.00,,,0.00,WUHU216HW,2013-02-27 18:09:00,
2013-02-27 11:10:00,37.6,23.3,30.09,West,270,1.8,4.7,56,0.00,,,0.00,WUHU216HW,2013-02-27 18:10:00,
2013-02-27 11:14:00,38.0,23.1,30.09,South,180,0.7,4.7,55,0.00,,,0.00,WUHU216HW,2013-02-27 18:14:00,
2013-02-27 11:15:00,38.2,23.3,30.09,West,270,1.1,4.7,55,0.00,,,0.00,WUHU216HW,2013-02-27 18:15:00,
2013-02-27 11:19:00,38.7,23.4,30.09,WNW,293,3.4,4.7,54,0.00,,,0.00,WUHU216HW,2013-02-27 18:19:00,
2013-02-27 11:20:00,38.9,23.1,30.09,WSW,248,2.5,4.7,53,0.00,,,0.00,WUHU216HW,2013-02-27 18:20:00,
2013-02-27 11:21:00,38.9,23.1,30.09,WNW,293,3.4,4.7,53,0.00,,,0.00,WUHU216HW,2013-02-27 18:21:00,
2013-02-27 11:24:00,39.2,23.1,30.09,SW,225,1.1,4.7,52,0.00,,,0.00,WUHU216HW,2013-02-27 18:24:00,
2013-02-27 11:25:00,39.2,23.1,30.09,NW,315,2.9,4.7,52,0.00,,,0.00,WUHU216HW,2013-02-27 18:25:00,
2013-02-27 11:26:00,39.4,23.1,30.09,WNW,293,5.4,5.4,52,0.00,,,0.00,WUHU216HW,2013-02-27 18:26:00,
2013-02-27 11:30:00,39.8,22.6,30.09,WSW,248,3.6,6.0,50,0.00,,,0.00,WUHU216HW,2013-02-27 18:30:00,
2013-02-27 11:31:00,40.0,22.8,30.09,West,270,3.4,6.0,50,0.00,,,0.00,WUHU216HW,2013-02-27 18:31:00,
2013-02-27 11:35:00,40.1,23.0,30.09,WSW,248,1.6,6.0,50,0.00,,,0.00,WUHU216HW,2013-02-27 18:35:00,
2013-02-27 11:36:00,40.3,22.6,30.09,West,270,4.0,6.0,49,0.00,,,0.00,WUHU216HW,2013-02-27 18:36:00,
2013-02-27 11:40:00,40.7,23.0,30.09,WSW,248,4.0,5.8,49,0.00,,,0.00,WUHU216HW,2013-02-27 18:40:00,
2013-02-27 11:41:00,40.7,23.0,30.09,WNW,293,3.6,5.8,49,0.00,,,0.00,WUHU216HW,2013-02-27 18:41:00,
2013-02-27 11:45:00,41.2,22.9,30.09,WSW,248,3.4,4.5,48,0.00,,,0.00,WUHU216HW,2013-02-27 18:45:00,
2013-02-27 11:46:00,41.4,23.0,30.08,WSW,248,1.1,4.5,48,0.00,,,0.00,WUHU216HW,2013-02-27 18:46:00,
2013-02-27 11:50:00,41.8,22.9,30.08,SW,225,4.3,6.0,47,0.00,,,0.00,WUHU216HW,2013-02-27 18:50:00,
2013-02-27 11:51:00,42.1,23.2,30.08,WSW,248,5.8,6.0,47,0.00,,,0.00,WUHU216HW,2013-02-27 18:51:00,
2013-02-27 11:55:00,42.3,22.3,30.08,West,270,5.8,6.7,45,0.00,,,0.00,WUHU216HW,2013-02-27 18:55:00,
2013-02-27 11:56:00,42.3,22.3,30.08,WNW,293,4.5,6.7,45,0.00,,,0.00,WUHU216HW,2013-02-27 18:56:00,
2013-02-27 11:57:00,42.3,22.3,30.08,WNW,293,4.5,6.7,45,0.00,,,0.00,WUHU216HW,2013-02-27 18:57:00,
2013-02-27 12:00:00,42.7,22.7,30.08,NW,315,4.0,6.7,45,0.00,,,0.00,WUHU216HW,2013-02-27 19:00:00,
2013-02-27 12:01:00,42.7,22.1,30.08,WSW,248,4.5,6.7,44,0.00,,,0.00,WUHU216HW,2013-02-27 19:01:00,
2013-02-27 12:02:00,42.8,22.3,30.08,WSW,248,3.6,6.7,44,0.00,,,0.00,WUHU216HW,2013-02-27 19:02:00,
2013-02-27 12:05:00,43.0,22.0,30.08,WNW,293,1.3,5.8,43,0.00,,,0.00,WUHU216HW,2013-02-27 19:05:00,
2013-02-27 12:06:00,43.0,22.0,30.08,NW,315,3.4,5.8,43,0.00,,,0.00,WUHU216HW,2013-02-27 19:06:00,
2013-02-27 12:07:00,43.2,21.6,30.08,West,270,3.4,5.8,42,0.00,,,0.00,WUHU216HW,2013-02-27 19:07:00,
2013-02-27 12:10:00,43.4,21.7,30.07,SW,225,4.0,4.5,42,0.00,,,0.00,WUHU216HW,2013-02-27 19:10:00,
2013-02-27 12:11:00,43.6,21.9,30.07,South,180,2.7,4.0,42,0.00,,,0.00,WUHU216HW,2013-02-27 19:11:00,
2013-02-27 12:12:00,43.7,22.1,30.08,North,0,1.3,4.0,42,0.00,,,0.00,WUHU216HW,2013-02-27 19:12:00,
2013-02-27 12:15:00,43.7,21.0,30.08,WNW,293,4.5,4.5,40,0.00,,,0.00,WUHU216HW,2013-02-27 19:15:00,
2013-02-27 12:16:00,43.7,21.0,30.08,West,270,4.5,4.5,40,0.00,,,0.00,WUHU216HW,2013-02-27 19:16:00,
2013-02-27 12:17:00,43.7,21.0,30.07,WNW,293,3.6,4.5,40,0.00,,,0.00,WUHU216HW,2013-02-27 19:17:00,
2013-02-27 12:20:00,43.7,20.4,30.07,West,270,4.0,4.5,39,0.00,,,0.00,WUHU216HW,2013-02-27 19:20:00,
2013-02-27 12:22:00,43.9,20.4,30.07,West,270,6.3,6.3,39,0.00,,,0.00,WUHU216HW,2013-02-27 19:22:00,
2013-02-27 12:26:00,43.9,21.2,30.07,West,270,2.0,6.3,40,0.00,,,0.00,WUHU216HW,2013-02-27 19:26:00,
2013-02-27 12:27:00,43.9,21.2,30.07,NNW,338,1.6,6.3,40,0.00,,,0.00,WUHU216HW,2013-02-27 19:27:00,
2013-02-27 12:31:00,44.1,21.3,30.07,SW,225,2.5,6.3,40,0.00,,,0.00,WUHU216HW,2013-02-27 19:31:00,
2013-02-27 12:32:00,44.1,21.3,30.07,WNW,293,2.5,4.7,40,0.00,,,0.00,WUHU216HW,2013-02-27 19:32:00,
2013-02-27 12:36:00,44.3,20.2,30.06,WNW,293,3.4,4.7,38,0.00,,,0.00,WUHU216HW,2013-02-27 19:36:00,
2013-02-27 12:37:00,44.3,20.8,30.06,NW,315,2.5,4.7,39,0.00,,,0.00,WUHU216HW,2013-02-27 19:37:00,
2013-02-27 12:41:00,44.5,21.0,30.06,WSW,248,4.5,6.3,39,0.00,,,0.00,WUHU216HW,2013-02-27 19:41:00,
2013-02-27 12:42:00,44.6,21.2,30.06,WNW,293,3.1,6.3,39,0.00,,,0.00,WUHU216HW,2013-02-27 19:42:00,
2013-02-27 12:43:00,44.6,21.2,30.06,SW,225,4.7,6.3,39,0.00,,,0.00,WUHU216HW,2013-02-27 19:43:00,
2013-02-27 12:46:00,44.8,20.6,30.06,North,0,4.7,6.3,38,0.00,,,0.00,WUHU216HW,2013-02-27 19:46:00,
2013-02-27 12:47:00,44.8,20.6,30.06,West,270,6.7,6.7,38,0.00,,,0.00,WUHU216HW,2013-02-27 19:47:00,
2013-02-27 12:48:00,44.8,20.6,30.06,West,270,6.7,6.7,38,0.00,,,0.00,WUHU216HW,2013-02-27 19:48:00,
2013-02-27 12:51:00,45.0,20.8,30.06,WNW,293,3.4,6.7,38,0.00,,,0.00,WUHU216HW,2013-02-27 19:51:00,
2013-02-27 12:52:00,45.2,21.0,30.06,West,270,2.2,6.7,38,0.00,,,0.00,WUHU216HW,2013-02-27 19:52:00,
2013-02-27 12:53:00,45.2,21.0,30.06,West,270,2.2,6.7,38,0.00,,,0.00,WUHU216HW,2013-02-27 19:53:00,
2013-02-27 12:56:00,45.7,21.4,30.06,NW,315,3.6,6.7,38,0.00,,,0.00,WUHU216HW,2013-02-27 19:56:00,
2013-02-27 12:58:00,45.7,21.4,30.06,West,270,3.4,5.8,38,0.00,,,0.00,WUHU216HW,2013-02-27 19:58:00,
2013-02-27 13:01:00,46.1,21.1,30.06,WSW,248,3.1,5.8,37,0.00,,,0.00,WUHU216HW,2013-02-27 20:01:00,
2013-02-27 13:03:00,46.1,21.8,30.06,South,180,0.9,5.8,38,0.00,,,0.00,WUHU216HW,2013-02-27 20:03:00,
2013-02-27 13:06:00,46.4,22.1,30.05,WSW,248,3.4,3.4,38,0.00,,,0.00,WUHU216HW,2013-02-27 20:06:00,
2013-02-27 13:08:00,46.4,21.4,30.05,NW,315,1.8,4.3,37,0.00,,,0.00,WUHU216HW,2013-02-27 20:08:00,
2013-02-27 13:11:00,46.6,20.9,30.05,NNW,338,3.4,4.9,36,0.00,,,0.00,WUHU216HW,2013-02-27 20:11:00,
2013-02-27 13:13:00,46.6,20.9,30.05,WSW,248,1.3,4.9,36,0.00,,,0.00,WUHU216HW,2013-02-27 20:13:00,
2013-02-27 13:17:00,46.4,20.7,30.05,West,270,2.9,4.9,36,0.00,,,0.00,WUHU216HW,2013-02-27 20:17:00,
2013-02-27 13:18:00,46.4,20.7,30.05,NW,315,4.7,4.9,36,0.00,,,0.00,WUHU216HW,2013-02-27 20:18:00,
2013-02-27 13:22:00,46.3,21.2,30.05,SSW,203,0.2,4.7,37,0.00,,,0.00,WUHU216HW,2013-02-27 20:22:00,
2013-02-27 13:23:00,46.1,20.4,30.04,NE,45,0.2,4.7,36,0.00,,,0.00,WUHU216HW,2013-02-27 20:23:00,
2013-02-27 13:27:00,45.7,19.5,30.04,NNE,23,2.5,4.7,35,0.00,,,0.00,WUHU216HW,2013-02-27 20:27:00,
2013-02-27 13:28:00,45.7,19.5,30.04,NNE,23,3.1,3.4,35,0.00,,,0.00,WUHU216HW,2013-02-27 20:28:00,
2013-02-27 13:29:00,45.7,19.5,30.04,East,90,1.8,3.1,35,0.00,,,0.00,WUHU216HW,2013-02-27 20:29:00,
2013-02-27 13:32:00,45.5,17.9,30.04,NE,45,3.4,4.0,33,0.00,,,0.00,WUHU216HW,2013-02-27 20:32:00,
2013-02-27 13:33:00,45.5,17.9,30.04,NE,45,2.7,4.0,33,0.00,,,0.00,WUHU216HW,2013-02-27 20:33:00,
2013-02-27 13:34:00,45.5,17.9,30.04,NE,45,2.7,4.0,33,0.00,,,0.00,WUHU216HW,2013-02-27 20:34:00,
2013-02-27 13:37:00,45.5,17.9,30.04,NNW,338,0.4,4.0,33,0.00,,,0.00,WUHU216HW,2013-02-27 20:37:00,
2013-02-27 13:38:00,45.5,17.9,30.04,WNW,293,1.1,4.0,33,0.00,,,0.00,WUHU216HW,2013-02-27 20:38:00,
2013-02-27 13:39:00,45.5,17.9,30.04,WNW,293,1.1,4.0,33,0.00,,,0.00,WUHU216HW,2013-02-27 20:39:00,
2013-02-27 13:43:00,45.7,18.7,30.04,NE,45,1.6,3.6,34,0.00,,,0.00,WUHU216HW,2013-02-27 20:43:00,
2013-02-27 13:44:00,45.7,18.7,30.04,NE,45,1.6,3.6,34,0.00,,,0.00,WUHU216HW,2013-02-27 20:44:00,
2013-02-27 13:48:00,46.1,18.5,30.04,NE,45,0.9,5.1,33,0.00,,,0.00,WUHU216HW,2013-02-27 20:48:00,
2013-02-27 13:49:00,46.1,18.5,30.04,NE,45,0.9,5.1,33,0.00,,,0.00,WUHU216HW,2013-02-27 20:49:00,
2013-02-27 13:53:00,47.0,18.5,30.03,NNW,338,2.5,5.1,32,0.00,,,0.00,WUHU216HW,2013-02-27 20:53:00,
2013-02-27 13:54:00,47.0,18.5,30.03,NNW,338,2.5,5.1,32,0.00,,,0.00,WUHU216HW,2013-02-27 20:54:00,
2013-02-27 13:58:00,47.2,18.7,30.03,NW,315,6.0,6.0,32,0.00,,,0.00,WUHU216HW,2013-02-27 20:58:00,
2013-02-27 13:59:00,47.2,18.7,30.03,NW,315,6.0,6.0,32,0.00,,,0.00,WUHU216HW,2013-02-27 20:59:00,
2013-02-27 14:03:00,47.0,19.3,30.03,NNE,23,1.3,6.0,33,0.00,,,0.00,WUHU216HW,2013-02-27 21:03:00,
2013-02-27 14:04:00,47.0,18.5,30.03,NW,315,1.3,6.0,32,0.00,,,0.00,WUHU216HW,2013-02-27 21:04:00,
2013-02-27 14:09:00,47.2,18.7,30.03,NE,45,1.8,4.0,32,0.00,,,0.00,WUHU216HW,2013-02-27 21:09:00,
2013-02-27 14:10:00,47.2,18.7,30.03,NE,45,1.8,4.0,32,0.00,,,0.00,WUHU216HW,2013-02-27 21:10:00,
2013-02-27 14:14:00,47.5,18.4,30.03,North,0,1.8,5.8,31,0.00,,,0.00,WUHU216HW,2013-02-27 21:14:00,
2013-02-27 14:15:00,47.5,18.4,30.03,North,0,1.8,5.8,31,0.00,,,0.00,WUHU216HW,2013-02-27 21:15:00,
2013-02-27 14:19:00,47.9,19.4,30.03,NNW,338,1.8,5.8,32,0.00,,,0.00,WUHU216HW,2013-02-27 21:19:00,
2013-02-27 14:20:00,47.9,19.4,30.03,NNW,338,1.8,5.8,32,0.00,,,0.00,WUHU216HW,2013-02-27 21:20:00,
2013-02-27 14:24:00,47.9,18.0,30.02,NNE,23,4.3,7.2,30,0.00,,,0.00,WUHU216HW,2013-02-27 21:24:00,
2013-02-27 14:25:00,47.9,18.0,30.02,NNE,23,4.3,7.2,30,0.00,,,0.00,WUHU216HW,2013-02-27 21:25:00,
2013-02-27 14:29:00,47.9,18.7,30.02,NNE,23,2.0,7.2,31,0.00,,,0.00,WUHU216HW,2013-02-27 21:29:00,
2013-02-27 14:30:00,47.9,18.7,30.02,NNE,23,2.0,7.2,31,0.00,,,0.00,WUHU216HW,2013-02-27 21:30:00,
2013-02-27 14:34:00,47.3,17.6,30.02,WNW,293,4.5,5.8,30,0.00,,,0.00,WUHU216HW,2013-02-27 21:34:00,
2013-02-27 14:35:00,47.3,17.6,30.02,WNW,293,4.5,5.8,30,0.00,,,0.00,WUHU216HW,2013-02-27 21:35:00,
2013-02-27 14:36:00,47.3,18.2,30.02,NNW,338,3.8,5.8,31,0.00,,,0.00,WUHU216HW,2013-02-27 21:36:00,
2013-02-27 14:40:00,47.0,17.9,30.02,ENE,68,2.7,5.1,31,0.00,,,0.00,WUHU216HW,2013-02-27 21:40:00,
2013-02-27 14:41:00,47.0,17.9,30.02,NNE,23,1.8,5.1,31,0.00,,,0.00,WUHU216HW,2013-02-27 21:41:00,
2013-02-27 14:45:00,46.8,18.4,30.02,North,0,3.6,3.8,32,0.00,,,0.00,WUHU216HW,2013-02-27 21:45:00,
2013-02-27 14:46:00,46.6,17.6,30.02,North,0,3.4,3.6,31,0.00,,,0.00,WUHU216HW,2013-02-27 21:46:00,
2013-02-27 14:50:00,46.6,18.3,30.02,North,0,4.0,4.0,32,0.00,,,0.00,WUHU216HW,2013-02-27 21:50:00,
2013-02-27 14:51:00,46.6,18.3,30.02,North,0,4.0,4.0,32,0.00,,,0.00,WUHU216HW,2013-02-27 21:51:00,
2013-02-27 14:55:00,46.8,18.4,30.02,West,270,4.7,6.0,32,0.00,,,0.00,WUHU216HW,2013-02-27 21:55:00,
2013-02-27 14:56:00,46.8,18.4,30.02,West,270,4.7,6.0,32,0.00,,,0.00,WUHU216HW,2013-02-27 21:56:00,
2013-02-27 15:00:00,46.6,18.9,30.02,NW,315,1.6,6.0,33,0.00,,,0.00,WUHU216HW,2013-02-27 22:00:00,
2013-02-27 15:01:00,46.6,18.9,30.02,NNW,338,0.7,6.0,33,0.00,,,0.00,WUHU216HW,2013-02-27 22:01:00,
2013-02-27 15:06:00,46.4,18.7,30.03,WNW,293,4.3,5.1,33,0.00,,,0.00,WUHU216HW,2013-02-27 22:06:00,
2013-02-27 15:11:00,46.3,18.5,30.03,NNW,338,3.4,5.8,33,0.00,,,0.00,WUHU216HW,2013-02-27 22:11:00,
2013-02-27 15:12:00,46.3,18.5,30.03,NNW,338,3.4,5.8,33,0.00,,,0.00,WUHU216HW,2013-02-27 22:12:00,
2013-02-27 15:16:00,46.1,18.5,30.03,NW,315,6.3,9.8,33,0.00,,,0.00,WUHU216HW,2013-02-27 22:16:00,
2013-02-27 15:17:00,46.1,18.5,30.03,West,270,6.0,9.8,33,0.00,,,0.00,WUHU216HW,2013-02-27 22:17:00,
2013-02-27 15:21:00,46.1,18.5,30.03,West,270,5.4,9.8,33,0.00,,,0.00,WUHU216HW,2013-02-27 22:21:00,
2013-02-27 15:22:00,46.1,18.5,30.03,NNW,338,4.0,9.8,33,0.00,,,0.00,WUHU216HW,2013-02-27 22:22:00,
2013-02-27 15:26:00,45.9,18.3,30.03,West,270,6.5,6.9,33,0.00,,,0.00,WUHU216HW,2013-02-27 22:26:00,
2013-02-27 15:27:00,45.9,18.3,30.03,West,270,6.5,6.9,33,0.00,,,0.00,WUHU216HW,2013-02-27 22:27:00,
2013-02-27 15:31:00,45.9,18.3,30.03,WSW,248,4.7,6.9,33,0.00,,,0.00,WUHU216HW,2013-02-27 22:31:00,
2013-02-27 15:32:00,45.9,18.3,30.02,WSW,248,5.6,6.9,33,0.00,,,0.00,WUHU216HW,2013-02-27 22:32:00,
2013-02-27 15:36:00,45.7,18.1,30.02,WSW,248,4.5,5.6,33,0.00,,,0.00,WUHU216HW,2013-02-27 22:36:00,
2013-02-27 15:37:00,45.7,18.1,30.02,NW,315,2.5,5.6,33,0.00,,,0.00,WUHU216HW,2013-02-27 22:37:00,
2013-02-27 15:41:00,45.5,18.6,30.02,West,270,4.7,5.6,34,0.00,,,0.00,WUHU216HW,2013-02-27 22:41:00,
2013-02-27 15:42:00,45.5,18.6,30.02,WNW,293,5.8,5.8,34,0.00,,,0.00,WUHU216HW,2013-02-27 22:42:00,
2013-02-27 15:46:00,45.5,17.9,30.02,WSW,248,2.9,6.3,33,0.00,,,0.00,WUHU216HW,2013-02-27 22:46:00,
2013-02-27 15:47:00,45.5,17.9,30.02,West,270,4.0,6.3,33,0.00,,,0.00,WUHU216HW,2013-02-27 22:47:00,
2013-02-27 15:51:00,45.4,18.5,30.02,WSW,248,2.7,6.3,34,0.00,,,0.00,WUHU216HW,2013-02-27 22:51:00,
2013-02-27 15:52:00,45.5,17.9,30.02,WSW,248,2.5,6.3,33,0.00,,,0.00,WUHU216HW,2013-02-27 22:52:00,
2013-02-27 15:56:00,45.4,17.7,30.02,West,270,2.5,4.3,33,0.00,,,0.00,WUHU216HW,2013-02-27 22:56:00,
2013-02-27 15:57:00,45.4,17.7,30.02,WSW,248,4.9,4.9,33,0.00,,,0.00,WUHU216HW,2013-02-27 22:57:00,
2013-02-27 16:01:00,45.4,17.7,30.02,SSW,203,3.8,4.9,33,0.00,,,0.00,WUHU216HW,2013-02-27 23:01:00,
2013-02-27 16:02:00,45.4,17.7,30.02,West,270,4.7,4.9,33,0.00,,,0.00,WUHU216HW,2013-02-27 23:02:00,
2013-02-27 16:03:00,45.4,17.7,30.02,West,270,3.4,4.9,33,0.00,,,0.00,WUHU216HW,2013-02-27 23:03:00,
2013-02-27 16:07:00,45.2,17.7,30.02,West,270,4.7,7.2,33,0.00,,,0.00,WUHU216HW,2013-02-27 23:07:00,
2013-02-27 16:08:00,45.4,17.7,30.02,WNW,293,2.0,7.2,33,0.00,,,0.00,WUHU216HW,2013-02-27 23:08:00,
2013-02-27 16:12:00,45.2,17.7,30.02,South,180,3.1,7.2,33,0.00,,,0.00,WUHU216HW,2013-02-27 23:12:00,
2013-02-27 16:13:00,45.2,17.7,30.02,NW,315,5.1,7.2,33,0.00,,,0.00,WUHU216HW,2013-02-27 23:13:00,
2013-02-27 16:17:00,45.2,18.3,30.02,West,270,2.0,5.1,34,0.00,,,0.00,WUHU216HW,2013-02-27 23:17:00,
2013-02-27 16:18:00,45.2,18.3,30.02,WNW,293,3.4,5.1,34,0.00,,,0.00,WUHU216HW,2013-02-27 23:18:00,
2013-02-27 16:22:00,45.2,17.7,30.01,North,0,2.2,5.1,33,0.00,,,0.00,WUHU216HW,2013-02-27 23:22:00,
2013-02-27 16:23:00,45.2,17.7,30.02,WSW,248,6.0,6.0,33,0.00,,,0.00,WUHU216HW,2013-02-27 23:23:00,
2013-02-27 16:27:00,45.2,17.7,30.02,WNW,293,1.8,6.0,33,0.00,,,0.00,WUHU216HW,2013-02-27 23:27:00,
2013-02-27 16:28:00,45.2,17.7,30.02,West,270,0.9,6.0,33,0.00,,,0.00,WUHU216HW,2013-02-27 23:28:00,
2013-02-27 16:32:00,45.0,17.5,30.02,West,270,6.9,8.9,33,0.00,,,0.00,WUHU216HW,2013-02-27 23:32:00,
2013-02-27 16:33:00,45.0,17.5,30.02,WNW,293,5.1,8.9,33,0.00,,,0.00,WUHU216HW,2013-02-27 23:33:00,
2013-02-27 16:34:00,45.0,17.5,30.02,West,270,6.3,8.9,33,0.00,,,0.00,WUHU216HW,2013-02-27 23:34:00,
2013-02-27 16:37:00,45.0,17.5,30.02,West,270,4.9,8.9,33,0.00,,,0.00,WUHU216HW,2013-02-27 23:37:00,
2013-02-27 16:38:00,45.0,17.5,30.02,West,270,4.7,8.9,33,0.00,,,0.00,WUHU216HW,2013-02-27 23:38:00,
2013-02-27 16:39:00,45.0,17.5,30.02,SW,225,2.2,8.1,33,0.00,,,0.00,WUHU216HW,2013-02-27 23:39:00,
2013-02-27 16:42:00,45.0,17.5,30.02,West,270,5.4,6.3,33,0.00,,,0.00,WUHU216HW,2013-02-27 23:42:00,
2013-02-27 16:44:00,45.0,18.1,30.02,West,270,3.1,6.3,34,0.00,,,0.00,WUHU216HW,2013-02-27 23:44:00,
2013-02-27 16:47:00,44.6,18.5,30.02,SW,225,6.0,6.0,35,0.00,,,0.00,WUHU216HW,2013-02-27 23:47:00,
2013-02-27 16:48:00,44.6,18.5,30.02,SW,225,6.0,6.0,35,0.00,,,0.00,WUHU216HW,2013-02-27 23:48:00,
2013-02-27 16:49:00,44.6,17.8,30.02,WSW,248,4.9,6.0,34,0.00,,,0.00,WUHU216HW,2013-02-27 23:49:00,
2013-02-27 16:53:00,44.6,17.8,30.02,West,270,5.1,6.0,34,0.00,,,0.00,WUHU216HW,2013-02-27 23:53:00,
2013-02-27 16:54:00,44.6,17.8,30.02,WNW,293,3.8,6.0,34,0.00,,,0.00,WUHU216HW,2013-02-27 23:54:00,
2013-02-27 16:58:00,44.6,18.5,30.02,West,270,0.7,5.1,35,0.00,,,0.00,WUHU216HW,2013-02-27 23:58:00,
2013-02-27 16:59:00,44.5,18.3,30.02,West,270,1.3,5.1,35,0.00,,,0.00,WUHU216HW,2013-02-27 23:59:00,
2013-02-27 17:03:00,44.5,18.3,30.02,WNW,293,0.9,3.8,35,0.00,,,0.00,WUHU216HW,2013-02-28 00:03:00,
2013-02-27 17:04:00,44.5,17.7,30.02,North,0,3.4,3.6,34,0.00,,,0.00,WUHU216HW,2013-02-28 00:04:00,
2013-02-27 17:05:00,44.3,17.5,30.02,WSW,248,1.3,3.4,34,0.00,,,0.00,WUHU216HW,2013-02-28 00:05:00,
2013-02-27 17:08:00,44.3,16.8,30.02,NE,45,3.4,4.7,33,0.00,,,0.00,WUHU216HW,2013-02-28 00:08:00,
2013-02-27 17:09:00,44.3,16.8,30.02,NE,45,5.4,5.4,33,0.00,,,0.00,WUHU216HW,2013-02-28 00:09:00,
2013-02-27 17:10:00,44.3,16.8,30.02,ENE,68,3.8,5.4,33,0.00,,,0.00,WUHU216HW,2013-02-28 00:10:00,
2013-02-27 17:13:00,44.3,16.1,30.02,NE,45,1.8,5.4,32,0.00,,,0.00,WUHU216HW,2013-02-28 00:13:00,
2013-02-27 17:14:00,44.3,16.1,30.02,NE,45,1.8,5.4,32,0.00,,,0.00,WUHU216HW,2013-02-28 00:14:00,
2013-02-27 17:15:00,44.3,16.8,30.02,NNE,23,3.4,5.4,33,0.00,,,0.00,WUHU216HW,2013-02-28 00:15:00,
2013-02-27 17:18:00,44.3,15.5,30.02,North,0,4.5,6.9,31,0.00,,,0.00,WUHU216HW,2013-02-28 00:18:00,
2013-02-27 17:19:00,44.5,16.3,30.02,NNE,23,4.9,6.9,32,0.00,,,0.00,WUHU216HW,2013-02-28 00:19:00,
2013-02-27 17:20:00,44.5,16.3,30.02,NNE,23,4.9,6.9,32,0.00,,,0.00,WUHU216HW,2013-02-28 00:20:00,
2013-02-27 17:23:00,44.3,16.1,30.02,NNE,23,3.6,6.9,32,0.00,,,0.00,WUHU216HW,2013-02-28 00:23:00,
2013-02-27 17:24:00,44.3,15.5,30.02,NNE,23,3.6,6.9,31,0.00,,,0.00,WUHU216HW,2013-02-28 00:24:00,
2013-02-27 17:25:00,44.5,15.7,30.02,NNE,23,3.6,6.9,31,0.00,,,0.00,WUHU216HW,2013-02-28 00:25:00,
2013-02-27 17:29:00,44.3,16.1,30.02,NNE,23,1.8,3.6,32,0.00,,,0.00,WUHU216HW,2013-02-28 00:29:00,
2013-02-27 17:30:00,44.3,16.1,30.02,North,0,2.7,4.7,32,0.00,,,0.00,WUHU216HW,2013-02-28 00:30:00,
2013-02-27 17:34:00,44.1,15.9,30.02,North,0,1.6,4.7,32,0.00,,,0.00,WUHU216HW,2013-02-28 00:34:00,
2013-02-27 17:35:00,44.1,15.9,30.02,North,0,1.8,4.7,32,0.00,,,0.00,WUHU216HW,2013-02-28 00:35:00,
2013-02-27 17:39:00,43.9,16.5,30.02,North,0,3.4,3.4,33,0.00,,,0.00,WUHU216HW,2013-02-28 00:39:00,
2013-02-27 17:40:00,43.9,16.5,30.02,North,0,3.4,3.4,33,0.00,,,0.00,WUHU216HW,2013-02-28 00:40:00,
2013-02-27 17:41:00,43.7,16.3,30.02,NNE,23,0.4,3.4,33,0.00,,,0.00,WUHU216HW,2013-02-28 00:41:00,
2013-02-27 17:44:00,43.6,16.1,30.02,NNW,338,2.7,3.4,33,0.00,,,0.00,WUHU216HW,2013-02-28 00:44:00,
2013-02-27 17:45:00,43.6,16.1,30.02,NNW,338,2.7,3.4,33,0.00,,,0.00,WUHU216HW,2013-02-28 00:45:00,
2013-02-27 17:46:00,43.6,16.1,30.02,NNE,23,0.2,3.4,33,0.00,,,0.00,WUHU216HW,2013-02-28 00:46:00,
2013-02-27 17:49:00,43.4,16.0,30.02,NNW,338,2.2,2.7,33,0.00,,,0.00,WUHU216HW,2013-02-28 00:49:00,
2013-02-27 17:50:00,43.4,16.0,30.02,North,0,2.7,2.7,33,0.00,,,0.00,WUHU216HW,2013-02-28 00:50:00,
2013-02-27 17:51:00,43.4,16.0,30.02,North,0,2.7,2.7,33,0.00,,,0.00,WUHU216HW,2013-02-28 00:51:00,
2013-02-27 17:55:00,43.2,15.1,30.02,West,270,1.8,6.9,32,0.00,,,0.00,WUHU216HW,2013-02-28 00:55:00,
2013-02-27 17:56:00,43.0,15.7,30.02,West,270,3.4,6.9,33,0.00,,,0.00,WUHU216HW,2013-02-28 00:56:00,
2013-02-27 18:00:00,42.8,15.5,30.02,WNW,293,1.8,6.9,33,0.00,,,0.00,WUHU216HW,2013-02-28 01:00:00,
2013-02-27 18:01:00,42.8,15.5,30.02,WNW,293,1.8,6.9,33,0.00,,,0.00,WUHU216HW,2013-02-28 01:01:00,
2013-02-27 18:05:00,42.3,15.0,30.02,West,270,3.1,4.7,33,0.00,,,0.00,WUHU216HW,2013-02-28 01:05:00,
2013-02-27 18:06:00,42.3,15.8,30.02,West,270,2.5,4.7,34,0.00,,,0.00,WUHU216HW,2013-02-28 01:06:00,
2013-02-27 18:10:00,41.9,16.0,30.02,West,270,1.6,3.8,35,0.00,,,0.00,WUHU216HW,2013-02-28 01:10:00,
2013-02-27 18:11:00,41.8,15.9,30.02,West,270,1.8,3.8,35,0.00,,,0.00,WUHU216HW,2013-02-28 01:11:00,
2013-02-27 18:12:00,41.8,15.9,30.02,West,270,2.5,3.8,35,0.00,,,0.00,WUHU216HW,2013-02-28 01:12:00,
2013-02-27 18:15:00,41.4,15.6,30.02,WSW,248,2.2,3.8,35,0.00,,,0.00,WUHU216HW,2013-02-28 01:15:00,
2013-02-27 18:16:00,41.4,15.6,30.02,NW,315,3.4,3.8,35,0.00,,,0.00,WUHU216HW,2013-02-28 01:16:00,
2013-02-27 18:17:00,41.4,15.6,30.02,West,270,3.6,3.8,35,0.00,,,0.00,WUHU216HW,2013-02-28 01:17:00,
2013-02-27 18:20:00,41.0,15.9,30.02,West,270,2.9,5.4,36,0.00,,,0.00,WUHU216HW,2013-02-28 01:20:00,
2013-02-27 18:21:00,40.9,15.8,30.02,West,270,1.8,5.4,36,0.00,,,0.00,WUHU216HW,2013-02-28 01:21:00,
2013-02-27 18:22:00,40.9,15.8,30.03,WNW,293,1.1,5.4,36,0.00,,,0.00,WUHU216HW,2013-02-28 01:22:00,
2013-02-27 18:25:00,40.7,15.7,30.02,WSW,248,1.6,5.4,36,0.00,,,0.00,WUHU216HW,2013-02-28 01:25:00,
2013-02-27 18:26:00,40.7,15.7,30.03,West,270,1.8,5.4,36,0.00,,,0.00,WUHU216HW,2013-02-28 01:26:00,
2013-02-27 18:27:00,40.5,15.5,30.03,West,270,1.1,5.4,36,0.00,,,0.00,WUHU216HW,2013-02-28 01:27:00,
2013-02-27 18:30:00,40.3,15.3,30.03,WSW,248,2.7,2.7,36,0.00,,,0.00,WUHU216HW,2013-02-28 01:30:00,
2013-02-27 18:31:00,40.1,15.1,30.03,WNW,293,3.1,3.1,36,0.00,,,0.00,WUHU216HW,2013-02-28 01:31:00,
2013-02-27 18:32:00,40.1,15.1,30.03,WNW,293,4.3,4.3,36,0.00,,,0.00,WUHU216HW,2013-02-28 01:32:00,
2013-02-27 18:35:00,40.0,15.7,30.03,West,270,2.5,4.3,37,0.00,,,0.00,WUHU216HW,2013-02-28 01:35:00,
2013-02-27 18:36:00,40.0,15.7,30.03,West,270,1.1,4.3,37,0.00,,,0.00,WUHU216HW,2013-02-28 01:36:00,
2013-02-27 18:37:00,39.8,15.5,30.03,WSW,248,2.5,4.3,37,0.00,,,0.00,WUHU216HW,2013-02-28 01:37:00,
2013-02-27 18:40:00,39.6,15.3,30.03,WSW,248,2.7,4.3,37,0.00,,,0.00,WUHU216HW,2013-02-28 01:40:00,
2013-02-27 18:41:00,39.4,15.1,30.03,WSW,248,1.6,4.3,37,0.00,,,0.00,WUHU216HW,2013-02-28 01:41:00,
2013-02-27 18:42:00,39.4,15.1,30.03,WNW,293,3.1,3.4,37,0.00,,,0.00,WUHU216HW,2013-02-28 01:42:00,
2013-02-27 18:45:00,39.2,14.9,30.03,West,270,1.1,3.4,37,0.00,,,0.00,WUHU216HW,2013-02-28 01:45:00,
2013-02-27 18:46:00,39.2,15.7,30.03,West,270,2.5,3.4,38,0.00,,,0.00,WUHU216HW,2013-02-28 01:46:00,
2013-02-27 18:47:00,39.2,15.7,30.03,West,270,2.0,3.4,38,0.00,,,0.00,WUHU216HW,2013-02-28 01:47:00,
2013-02-27 18:50:00,38.9,15.3,30.04,WNW,293,2.5,3.1,38,0.00,,,0.00,WUHU216HW,2013-02-28 01:50:00,
2013-02-27 18:51:00,38.9,15.3,30.04,West,270,1.6,3.1,38,0.00,,,0.00,WUHU216HW,2013-02-28 01:51:00,
2013-02-27 18:52:00,38.9,15.3,30.04,West,270,2.5,2.5,38,0.00,,,0.00,WUHU216HW,2013-02-28 01:52:00,
2013-02-27 18:55:00,38.5,14.9,30.04,WNW,293,3.8,4.5,38,0.00,,,0.00,WUHU216HW,2013-02-28 01:55:00,
2013-02-27 18:56:00,38.5,15.7,30.04,West,270,2.7,4.5,39,0.00,,,0.00,WUHU216HW,2013-02-28 01:56:00,
2013-02-27 18:57:00,38.5,15.7,30.04,West,270,1.1,4.5,39,0.00,,,0.00,WUHU216HW,2013-02-28 01:57:00,
2013-02-27 19:00:00,38.3,15.5,30.04,West,270,2.5,4.5,39,0.00,,,0.00,WUHU216HW,2013-02-28 02:00:00,
2013-02-27 19:02:00,38.2,15.3,30.04,WNW,293,2.9,4.5,39,0.00,,,0.00,WUHU216HW,2013-02-28 02:02:00,
2013-02-27 19:03:00,38.2,15.3,30.04,WNW,293,3.8,4.5,39,0.00,,,0.00,WUHU216HW,2013-02-28 02:03:00,
2013-02-27 19:05:00,38.0,15.8,30.04,NW,315,7.2,7.2,40,0.00,,,0.00,WUHU216HW,2013-02-28 02:05:00,
2013-02-27 19:07:00,37.8,15.7,30.04,WNW,293,4.0,7.2,40,0.00,,,0.00,WUHU216HW,2013-02-28 02:07:00,
2013-02-27 19:08:00,37.8,15.7,30.04,WNW,293,6.3,7.2,40,0.00,,,0.00,WUHU216HW,2013-02-28 02:08:00,
2013-02-27 19:10:00,37.8,15.7,30.04,WNW,293,5.1,7.2,40,0.00,,,0.00,WUHU216HW,2013-02-28 02:10:00,
2013-02-27 19:12:00,37.8,15.7,30.04,WNW,293,4.3,7.2,40,0.00,,,0.00,WUHU216HW,2013-02-28 02:12:00,
2013-02-27 19:13:00,37.8,15.7,30.04,NNW,338,3.4,7.2,40,0.00,,,0.00,WUHU216HW,2013-02-28 02:13:00,
2013-02-27 19:16:00,37.6,15.5,30.04,WNW,293,4.3,6.3,40,0.00,,,0.00,WUHU216HW,2013-02-28 02:16:00,
2013-02-27 19:17:00,37.4,15.3,30.04,West,270,3.4,6.3,40,0.00,,,0.00,WUHU216HW,2013-02-28 02:17:00,
2013-02-27 19:18:00,37.4,15.3,30.04,NW,315,2.9,5.1,40,0.00,,,0.00,WUHU216HW,2013-02-28 02:18:00,
2013-02-27 19:21:00,37.3,15.7,30.04,WNW,293,6.3,6.3,41,0.00,,,0.00,WUHU216HW,2013-02-28 02:21:00,
2013-02-27 19:22:00,37.3,15.7,30.04,WNW,293,5.6,6.3,41,0.00,,,0.00,WUHU216HW,2013-02-28 02:22:00,
2013-02-27 19:23:00,37.3,15.7,30.04,WNW,293,5.6,6.3,41,0.00,,,0.00,WUHU216HW,2013-02-28 02:23:00,
2013-02-27 19:26:00,37.1,16.0,30.04,WSW,248,6.3,6.3,42,0.00,,,0.00,WUHU216HW,2013-02-28 02:26:00,
2013-02-27 19:28:00,37.1,16.0,30.04,WNW,293,4.9,6.3,42,0.00,,,0.00,WUHU216HW,2013-02-28 02:28:00,
2013-02-27 19:31:00,36.9,15.8,30.05,WSW,248,4.7,6.3,42,0.00,,,0.00,WUHU216HW,2013-02-28 02:31:00,
2013-02-27 19:33:00,36.9,15.8,30.05,WNW,293,3.1,6.3,42,0.00,,,0.00,WUHU216HW,2013-02-28 02:33:00,
2013-02-27 19:36:00,36.7,15.7,30.05,West,270,3.4,5.8,42,0.00,,,0.00,WUHU216HW,2013-02-28 02:36:00,
2013-02-27 19:38:00,36.5,16.0,30.04,West,270,2.7,5.8,43,0.00,,,0.00,WUHU216HW,2013-02-28 02:38:00,
2013-02-27 19:41:00,36.5,16.0,30.05,West,270,1.6,5.8,43,0.00,,,0.00,WUHU216HW,2013-02-28 02:41:00,
2013-02-27 19:43:00,36.4,15.9,30.05,WSW,248,7.4,7.4,43,0.00,,,0.00,WUHU216HW,2013-02-28 02:43:00,
2013-02-27 19:44:00,36.4,15.9,30.05,WSW,248,7.4,7.4,43,0.00,,,0.00,WUHU216HW,2013-02-28 02:44:00,
2013-02-27 19:46:00,36.4,15.9,30.05,West,270,3.4,7.4,43,0.00,,,0.00,WUHU216HW,2013-02-28 02:46:00,
2013-02-27 19:48:00,36.4,15.9,30.05,WSW,248,2.5,7.4,43,0.00,,,0.00,WUHU216HW,2013-02-28 02:48:00,
2013-02-27 19:49:00,36.4,15.9,30.05,WSW,248,2.5,7.4,43,0.00,,,0.00,WUHU216HW,2013-02-28 02:49:00,
2013-02-27 19:51:00,36.2,15.8,30.05,West,270,1.3,7.4,43,0.00,,,0.00,WUHU216HW,2013-02-28 02:51:00,
2013-02-27 19:53:00,36.2,15.8,30.05,WNW,293,1.8,4.0,43,0.00,,,0.00,WUHU216HW,2013-02-28 02:53:00,
2013-02-27 19:54:00,36.2,15.8,30.05,WNW,293,1.8,4.0,43,0.00,,,0.00,WUHU216HW,2013-02-28 02:54:00,
2013-02-27 19:56:00,36.2,15.8,30.05,NNW,338,4.7,4.7,43,0.00,,,0.00,WUHU216HW,2013-02-28 02:56:00,
2013-02-27 19:58:00,36.0,15.0,30.05,WSW,248,1.3,4.7,42,0.00,,,0.00,WUHU216HW,2013-02-28 02:58:00,
2013-02-27 19:59:00,36.0,15.0,30.05,WSW,248,1.3,4.7,42,0.00,,,0.00,WUHU216HW,2013-02-28 02:59:00,
2013-02-27 20:01:00,36.0,15.6,30.05,SW,225,2.5,4.7,43,0.00,,,0.00,WUHU216HW,2013-02-28 03:01:00,
2013-02-27 20:04:00,35.8,15.4,30.05,WSW,248,1.1,4.7,43,0.00,,,0.00,WUHU216HW,2013-02-28 03:04:00,
2013-02-27 20:05:00,35.8,15.4,30.05,WSW,248,1.3,4.7,43,0.00,,,0.00,WUHU216HW,2013-02-28 03:05:00,
2013-02-27 20:06:00,35.8,15.4,30.05,WSW,248,1.3,2.5,43,0.00,,,0.00,WUHU216HW,2013-02-28 03:06:00,
2013-02-27 20:09:00,35.6,15.2,30.05,WSW,248,0.9,2.5,43,0.00,,,0.00,WUHU216HW,2013-02-28 03:09:00,
2013-02-27 20:10:00,35.6,15.2,30.05,SSW,203,0.7,2.5,43,0.00,,,0.00,WUHU216HW,2013-02-28 03:10:00,
2013-02-27 20:11:00,35.6,15.2,30.05,SW,225,1.1,2.2,43,0.00,,,0.00,WUHU216HW,2013-02-28 03:11:00,
2013-02-27 20:14:00,35.6,15.2,30.05,West,270,2.0,2.5,43,0.00,,,0.00,WUHU216HW,2013-02-28 03:14:00,
2013-02-27 20:15:00,35.6,15.2,30.06,West,270,0.4,2.5,43,0.00,,,0.00,WUHU216HW,2013-02-28 03:15:00,
2013-02-27 20:17:00,35.6,15.8,30.06,SW,225,1.1,2.5,44,0.00,,,0.00,WUHU216HW,2013-02-28 03:17:00,
2013-02-27 20:19:00,35.6,15.8,30.06,SW,225,0.4,2.5,44,0.00,,,0.00,WUHU216HW,2013-02-28 03:19:00,
2013-02-27 20:20:00,35.5,15.6,30.06,SSE,158,0.4,2.5,44,0.00,,,0.00,WUHU216HW,2013-02-28 03:20:00,
2013-02-27 20:22:00,35.5,15.6,30.06,SSW,203,1.1,2.0,44,0.00,,,0.00,WUHU216HW,2013-02-28 03:22:00,
2013-02-27 20:24:00,35.5,15.6,30.06,WSW,248,3.1,3.1,44,0.00,,,0.00,WUHU216HW,2013-02-28 03:24:00,
2013-02-27 20:25:00,35.5,15.6,30.06,SW,225,3.1,3.1,44,0.00,,,0.00,WUHU216HW,2013-02-28 03:25:00,
2013-02-27 20:27:00,35.3,15.4,30.06,SSE,158,3.4,3.4,44,0.00,,,0.00,WUHU216HW,2013-02-28 03:27:00,
2013-02-27 20:29:00,35.3,15.4,30.06,SW,225,1.3,3.4,44,0.00,,,0.00,WUHU216HW,2013-02-28 03:29:00,
2013-02-27 20:30:00,35.3,15.4,30.06,SW,225,1.3,3.4,44,0.00,,,0.00,WUHU216HW,2013-02-28 03:30:00,
2013-02-27 20:32:00,35.3,15.9,30.06,SSW,203,2.9,3.4,45,0.00,,,0.00,WUHU216HW,2013-02-28 03:32:00,
2013-02-27 20:34:00,35.3,15.9,30.06,SW,225,2.2,5.4,45,0.00,,,0.00,WUHU216HW,2013-02-28 03:34:00,
2013-02-27 20:35:00,35.3,15.9,30.06,SW,225,2.2,5.4,45,0.00,,,0.00,WUHU216HW,2013-02-28 03:35:00,
2013-02-27 20:37:00,35.3,15.9,30.06,SSW,203,1.3,5.4,45,0.00,,,0.00,WUHU216HW,2013-02-28 03:37:00,
2013-02-27 20:40:00,35.3,15.9,30.06,WSW,248,2.5,5.4,45,0.00,,,0.00,WUHU216HW,2013-02-28 03:40:00,
2013-02-27 20:42:00,35.1,15.8,30.06,NW,315,0.2,5.4,45,0.00,,,0.00,WUHU216HW,2013-02-28 03:42:00,
2013-02-27 20:45:00,35.1,15.8,30.06,WSW,248,0.7,2.7,45,0.00,,,0.00,WUHU216HW,2013-02-28 03:45:00,
2013-02-27 20:47:00,35.1,15.8,30.06,SSW,203,2.9,2.9,45,0.00,,,0.00,WUHU216HW,2013-02-28 03:47:00,
2013-02-27 20:50:00,35.1,15.8,30.06,West,270,2.0,2.9,45,0.00,,,0.00,WUHU216HW,2013-02-28 03:50:00,
2013-02-27 20:51:00,35.1,15.8,30.06,WNW,293,0.4,2.9,45,0.00,,,0.00,WUHU216HW,2013-02-28 03:51:00,
2013-02-27 20:52:00,35.1,15.8,30.06,WNW,293,2.7,2.9,45,0.00,,,0.00,WUHU216HW,2013-02-28 03:52:00,
2013-02-27 20:55:00,35.1,15.8,30.06,WSW,248,1.6,2.9,45,0.00,,,0.00,WUHU216HW,2013-02-28 03:55:00,
2013-02-27 20:56:00,35.1,15.8,30.06,WSW,248,1.6,2.9,45,0.00,,,0.00,WUHU216HW,2013-02-28 03:56:00,
2013-02-27 20:57:00,35.1,15.8,30.06,SSW,203,1.1,2.7,45,0.00,,,0.00,WUHU216HW,2013-02-28 03:57:00,
2013-02-27 21:00:00,35.1,15.8,30.06,NW,315,0.7,2.7,45,0.00,,,0.00,WUHU216HW,2013-02-28 04:00:00,
2013-02-27 21:01:00,35.1,15.8,30.06,South,180,0.4,2.7,45,0.00,,,0.00,WUHU216HW,2013-02-28 04:01:00,
2013-02-27 21:03:00,35.1,15.8,30.06,SW,225,0.4,1.8,45,0.00,,,0.00,WUHU216HW,2013-02-28 04:03:00,
2013-02-27 21:05:00,35.1,16.3,30.06,SSE,158,0.4,1.3,46,0.00,,,0.00,WUHU216HW,2013-02-28 04:05:00,
2013-02-27 21:06:00,35.1,16.3,30.06,SSE,158,0.0,1.1,46,0.00,,,0.00,WUHU216HW,2013-02-28 04:06:00,
2013-02-27 21:08:00,35.1,16.3,30.06,SW,225,0.4,1.1,46,0.00,,,0.00,WUHU216HW,2013-02-28 04:08:00,
2013-02-27 21:11:00,35.1,16.3,30.06,SSW,203,1.1,1.8,46,0.00,,,0.00,WUHU216HW,2013-02-28 04:11:00,
2013-02-27 21:13:00,35.1,16.3,30.06,ESE,113,0.2,1.8,46,0.00,,,0.00,WUHU216HW,2013-02-28 04:13:00,
2013-02-27 21:16:00,35.1,16.3,30.06,SSW,203,0.7,1.8,46,0.00,,,0.00,WUHU216HW,2013-02-28 04:16:00,
2013-02-27 21:18:00,35.1,16.3,30.06,SW,225,1.1,1.8,46,0.00,,,0.00,WUHU216HW,2013-02-28 04:18:00,
2013-02-27 21:21:00,35.1,16.3,30.06,South,180,0.4,1.3,46,0.00,,,0.00,WUHU216HW,2013-02-28 04:21:00,
2013-02-27 21:22:00,35.1,16.3,30.06,SSW,203,1.1,1.3,46,0.00,,,0.00,WUHU216HW,2013-02-28 04:22:00,
2013-02-27 21:23:00,34.9,16.1,30.06,SW,225,3.6,3.6,46,0.00,,,0.00,WUHU216HW,2013-02-28 04:23:00,
2013-02-27 21:26:00,34.9,16.1,30.06,SW,225,2.5,3.6,46,0.00,,,0.00,WUHU216HW,2013-02-28 04:26:00,
2013-02-27 21:27:00,34.9,16.1,30.06,SW,225,2.5,3.6,46,0.00,,,0.00,WUHU216HW,2013-02-28 04:27:00,
2013-02-27 21:28:00,35.1,16.3,30.06,SW,225,1.3,3.6,46,0.00,,,0.00,WUHU216HW,2013-02-28 04:28:00,
2013-02-27 21:31:00,34.9,16.7,30.06,SW,225,2.9,3.6,47,0.00,,,0.00,WUHU216HW,2013-02-28 04:31:00,
2013-02-27 21:32:00,34.9,16.7,30.06,SW,225,2.9,3.6,47,0.00,,,0.00,WUHU216HW,2013-02-28 04:32:00,
2013-02-27 21:33:00,34.9,16.7,30.06,SW,225,4.3,4.3,47,0.00,,,0.00,WUHU216HW,2013-02-28 04:33:00,
2013-02-27 21:36:00,34.9,16.7,30.06,SW,225,3.1,4.3,47,0.00,,,0.00,WUHU216HW,2013-02-28 04:36:00,
2013-02-27 21:37:00,34.9,16.7,30.06,SW,225,3.1,4.3,47,0.00,,,0.00,WUHU216HW,2013-02-28 04:37:00,
2013-02-27 21:38:00,34.9,16.7,30.06,SW,225,2.0,4.3,47,0.00,,,0.00,WUHU216HW,2013-02-28 04:38:00,
2013-02-27 21:41:00,34.9,16.7,30.06,SSW,203,1.8,4.3,47,0.00,,,0.00,WUHU216HW,2013-02-28 04:41:00,
2013-02-27 21:42:00,34.9,16.7,30.06,SSW,203,1.8,4.3,47,0.00,,,0.00,WUHU216HW,2013-02-28 04:42:00,
2013-02-27 21:43:00,34.9,16.7,30.06,SW,225,0.0,3.1,47,0.00,,,0.00,WUHU216HW,2013-02-28 04:43:00,
2013-02-27 21:46:00,34.9,16.7,30.06,SSW,203,1.8,2.0,47,0.00,,,0.00,WUHU216HW,2013-02-28 04:46:00,
2013-02-27 21:47:00,34.9,16.7,30.06,SSW,203,1.8,2.0,47,0.00,,,0.00,WUHU216HW,2013-02-28 04:47:00,
2013-02-27 21:48:00,34.9,16.7,30.06,SSW,203,0.9,1.8,47,0.00,,,0.00,WUHU216HW,2013-02-28 04:48:00,
2013-02-27 21:51:00,34.9,16.7,30.06,South,180,0.2,1.8,47,0.00,,,0.00,WUHU216HW,2013-02-28 04:51:00,
2013-02-27 21:52:00,34.9,16.7,30.06,SE,135,1.1,1.8,47,0.00,,,0.00,WUHU216HW,2013-02-28 04:52:00,
2013-02-27 21:53:00,34.9,16.7,30.06,SE,135,1.1,1.8,47,0.00,,,0.00,WUHU216HW,2013-02-28 04:53:00,
2013-02-27 21:56:00,34.9,16.7,30.06,SE,135,0.4,1.3,47,0.00,,,0.00,WUHU216HW,2013-02-28 04:56:00,
2013-02-27 21:57:00,34.9,16.7,30.06,South,180,0.0,1.3,47,0.00,,,0.00,WUHU216HW,2013-02-28 04:57:00,
2013-02-27 21:58:00,34.9,16.7,30.06,South,180,0.0,1.3,47,0.00,,,0.00,WUHU216HW,2013-02-28 04:58:00,
2013-02-27 22:00:00,34.9,16.7,30.06,South,180,0.0,1.3,47,0.00,,,0.00,WUHU216HW,2013-02-28 05:00:00,
2013-02-27 22:05:00,34.7,16.5,30.06,SW,225,1.1,1.3,47,0.00,,,0.00,WUHU216HW,2013-02-28 05:05:00,
2013-02-27 22:10:00,34.7,17.0,30.06,SW,225,4.9,4.9,48,0.00,,,0.00,WUHU216HW,2013-02-28 05:10:00,
2013-02-27 22:15:00,34.9,17.2,30.06,WSW,248,5.4,5.4,48,0.00,,,0.00,WUHU216HW,2013-02-28 05:15:00,
2013-02-27 22:16:00,34.9,17.2,30.06,WSW,248,5.4,5.4,48,0.00,,,0.00,WUHU216HW,2013-02-28 05:16:00,
2013-02-27 22:20:00,34.9,17.2,30.07,WNW,293,1.1,5.4,48,0.00,,,0.00,WUHU216HW,2013-02-28 05:20:00,
2013-02-27 22:21:00,34.9,17.2,30.07,WNW,293,1.1,5.4,48,0.00,,,0.00,WUHU216HW,2013-02-28 05:21:00,
2013-02-27 22:25:00,35.1,17.4,30.07,WNW,293,1.3,4.3,48,0.00,,,0.00,WUHU216HW,2013-02-28 05:25:00,
2013-02-27 22:26:00,35.1,17.4,30.07,West,270,1.6,4.3,48,0.00,,,0.00,WUHU216HW,2013-02-28 05:26:00,
2013-02-27 22:30:00,35.1,17.4,30.07,NW,315,3.6,4.0,48,0.00,,,0.00,WUHU216HW,2013-02-28 05:30:00,
2013-02-27 22:31:00,35.3,17.5,30.07,NW,315,1.1,4.0,48,0.00,,,0.00,WUHU216HW,2013-02-28 05:31:00,
2013-02-27 22:35:00,35.3,17.0,30.06,WNW,293,2.7,4.0,47,0.00,,,0.00,WUHU216HW,2013-02-28 05:35:00,
2013-02-27 22:36:00,35.3,17.0,30.06,WNW,293,2.7,4.0,47,0.00,,,0.00,WUHU216HW,2013-02-28 05:36:00,
2013-02-27 22:40:00,35.3,17.0,30.06,West,270,2.0,4.7,47,0.00,,,0.00,WUHU216HW,2013-02-28 05:40:00,
2013-02-27 22:41:00,35.3,17.0,30.06,West,270,2.0,4.7,47,0.00,,,0.00,WUHU216HW,2013-02-28 05:41:00,
2013-02-27 22:42:00,35.3,17.5,30.06,West,270,1.1,4.7,48,0.00,,,0.00,WUHU216HW,2013-02-28 05:42:00,
2013-02-27 22:45:00,35.3,17.5,30.07,West,270,5.1,5.1,48,0.00,,,0.00,WUHU216HW,2013-02-28 05:45:00,
2013-02-27 22:46:00,35.3,17.5,30.07,West,270,3.1,5.1,48,0.00,,,0.00,WUHU216HW,2013-02-28 05:46:00,
2013-02-27 22:47:00,35.3,17.5,30.07,West,270,3.1,5.1,48,0.00,,,0.00,WUHU216HW,2013-02-28 05:47:00,
2013-02-27 22:51:00,35.5,17.6,30.07,West,270,4.0,5.4,48,0.00,,,0.00,WUHU216HW,2013-02-28 05:51:00,
2013-02-27 22:52:00,35.5,17.6,30.07,West,270,3.1,5.4,48,0.00,,,0.00,WUHU216HW,2013-02-28 05:52:00,
2013-02-27 22:56:00,35.5,17.6,30.07,WNW,293,1.8,5.4,48,0.00,,,0.00,WUHU216HW,2013-02-28 05:56:00,
2013-02-27 22:57:00,35.5,17.2,30.07,WSW,248,2.0,5.4,47,0.00,,,0.00,WUHU216HW,2013-02-28 05:57:00,
2013-02-27 23:01:00,35.5,17.2,30.06,WSW,248,1.6,4.3,47,0.00,,,0.00,WUHU216HW,2013-02-28 06:01:00,
2013-02-27 23:02:00,35.5,17.2,30.06,WSW,248,2.0,4.3,47,0.00,,,0.00,WUHU216HW,2013-02-28 06:02:00,
2013-02-27 23:06:00,35.5,17.2,30.06,West,270,3.4,4.3,47,0.00,,,0.00,WUHU216HW,2013-02-28 06:06:00,
2013-02-27 23:07:00,35.3,17.0,30.06,WSW,248,2.0,4.3,47,0.00,,,0.00,WUHU216HW,2013-02-28 06:07:00,
2013-02-27 23:11:00,35.3,17.0,30.06,SW,225,1.6,4.3,47,0.00,,,0.00,WUHU216HW,2013-02-28 06:11:00,
2013-02-27 23:12:00,35.5,17.2,30.06,WSW,248,1.1,4.3,47,0.00,,,0.00,WUHU216HW,2013-02-28 06:12:00,
2013-02-27 23:13:00,35.3,17.0,30.06,SW,225,2.5,4.3,47,0.00,,,0.00,WUHU216HW,2013-02-28 06:13:00,
2013-02-27 23:16:00,35.3,17.5,30.06,West,270,2.5,3.1,48,0.00,,,0.00,WUHU216HW,2013-02-28 06:16:00,
2013-02-27 23:17:00,35.3,17.0,30.06,WSW,248,3.1,3.1,47,0.00,,,0.00,WUHU216HW,2013-02-28 06:17:00,
2013-02-27 23:18:00,35.3,17.5,30.06,West,270,2.7,3.1,48,0.00,,,0.00,WUHU216HW,2013-02-28 06:18:00,
2013-02-27 23:21:00,35.3,17.5,30.07,WSW,248,1.3,3.1,48,0.00,,,0.00,WUHU216HW,2013-02-28 06:21:00,
2013-02-27 23:22:00,35.3,17.5,30.07,WSW,248,1.1,3.1,48,0.00,,,0.00,WUHU216HW,2013-02-28 06:22:00,
2013-02-27 23:23:00,35.3,17.5,30.07,WSW,248,1.1,3.1,48,0.00,,,0.00,WUHU216HW,2013-02-28 06:23:00,
2013-02-27 23:24:00,35.1,17.4,30.06,SSW,203,0.9,3.1,48,0.00,,,0.00,WUHU216HW,2013-02-28 06:24:00,
2013-02-27 23:26:00,35.1,17.4,30.06,SW,225,1.1,3.1,48,0.00,,,0.00,WUHU216HW,2013-02-28 06:26:00,
2013-02-27 23:28:00,35.1,17.4,30.07,SW,225,1.3,2.7,48,0.00,,,0.00,WUHU216HW,2013-02-28 06:28:00,
2013-02-27 23:29:00,35.1,17.4,30.07,SSE,158,0.4,1.6,48,0.00,,,0.00,WUHU216HW,2013-02-28 06:29:00,
2013-02-27 23:31:00,34.9,17.2,30.07,NW,315,0.0,1.6,48,0.00,,,0.00,WUHU216HW,2013-02-28 06:31:00,
2013-02-27 23:33:00,35.1,17.4,30.07,East,90,0.0,1.6,48,0.00,,,0.00,WUHU216HW,2013-02-28 06:33:00,
2013-02-27 23:35:00,34.9,17.2,30.07,South,180,0.7,1.6,48,0.00,,,0.00,WUHU216HW,2013-02-28 06:35:00,
2013-02-27 23:36:00,34.9,17.2,30.06,SSW,203,0.4,1.6,48,0.00,,,0.00,WUHU216HW,2013-02-28 06:36:00,
2013-02-27 23:38:00,34.9,17.2,30.06,SW,225,1.6,1.6,48,0.00,,,0.00,WUHU216HW,2013-02-28 06:38:00,
2013-02-27 23:40:00,34.9,17.2,30.06,SSW,203,0.0,2.2,48,0.00,,,0.00,WUHU216HW,2013-02-28 06:40:00,
2013-02-27 23:42:00,34.9,17.2,30.06,South,180,0.0,2.2,48,0.00,,,0.00,WUHU216HW,2013-02-28 06:42:00,
2013-02-27 23:43:00,34.9,17.2,30.06,South,180,1.6,2.2,48,0.00,,,0.00,WUHU216HW,2013-02-28 06:43:00,
2013-02-27 23:45:00,34.9,17.2,30.06,SSE,158,0.0,2.2,48,0.00,,,0.00,WUHU216HW,2013-02-28 06:45:00,
2013-02-27 23:47:00,34.7,17.0,30.06,SE,135,0.4,2.2,48,0.00,,,0.00,WUHU216HW,2013-02-28 06:47:00,
2013-02-27 23:48:00,34.7,17.0,30.06,SW,225,2.5,2.5,48,0.00,,,0.00,WUHU216HW,2013-02-28 06:48:00,
2013-02-27 23:50:00,34.7,17.0,30.05,SW,225,2.0,2.5,48,0.00,,,0.00,WUHU216HW,2013-02-28 06:50:00,
2013-02-27 23:52:00,34.7,17.5,30.05,WSW,248,1.1,2.5,49,0.00,,,0.00,WUHU216HW,2013-02-28 06:52:00,
2013-02-27 23:53:00,34.6,17.3,30.06,WSW,248,1.1,2.5,49,0.00,,,0.00,WUHU216HW,2013-02-28 06:53:00,
2013-02-27 23:56:00,34.6,17.3,30.06,West,270,1.6,2.5,49,0.00,,,0.00,WUHU216HW,2013-02-28 06:56:00,
2013-02-27 23:57:00,34.6,17.3,30.06,West,270,1.1,2.5,49,0.00,,,0.00,WUHU216HW,2013-02-28 06:57:00,
2013-02-27 23:58:00,34.6,17.3,30.06,WNW,293,0.7,2.0,49,0.00,,,0.00,WUHU216HW,2013-02-28 06:58:00,
2013-02-27 23:59:00,34.4,17.1,30.06,NNW,338,1.6,2.0,49,0.00,,,0.00,WUHU216HW,2013-02-28 06:59:00,